Home > Products > Valid Products > TAF

000
FTUS41 KOKX 282329
TAFLGA
TAF
KLGA 282329Z 2900/2924 16009KT P6SM -SHRA BKN060 OVC100
     FM290400 10007KT P6SM -SHRA OVC060
     FM290700 06014KT P6SM BKN060
     FM292200 10010KT P6SM -RA BKN050=



000
FTUS41 KOKX 282329
TAFTEB
TAF
KTEB 282329Z 2900/2924 17006KT P6SM -SHRA BKN060 OVC100
     FM290300 07005KT P6SM -RA OVC060
     FM290700 08005KT P6SM OVC060
     FM291500 11008KT P6SM BKN060
     FM292100 12005KT P6SM -RA BKN050=



000
FTUS41 KOKX 282329
TAFEWR
TAF
KEWR 282329Z 2900/3006 15007KT P6SM -SHRA BKN060 OVC100
     FM290300 07007KT P6SM -SHRA OVC060
     FM290700 09009KT P6SM BKN060
     FM292100 12007KT P6SM -RA BKN050
     FM300200 12007KT P6SM -RA SCT025 BKN040=



000
FTUS41 KOKX 282329
TAFBDR
TAF
KBDR 282329Z 2900/2924 18006KT P6SM -SHRA BKN060 OVC100
     FM290400 10006KT P6SM -SHRA OVC060
     FM290700 07008KT P6SM OVC060
     FM291600 10010KT P6SM BKN060=



000
FTUS41 KOKX 282329
TAFISP
TAF
KISP 282329Z 2900/2924 17006KT P6SM OVC200
     FM290100 16006KT P6SM -SHRA BKN060 OVC100
     FM290400 08006KT P6SM -SHRA OVC060
     FM290700 08008KT P6SM OVC060
     FM291600 10010KT P6SM BKN060=



000
FTUS41 KOKX 282329
TAFSWF
TAF
KSWF 282329Z 2900/3006 VRB06KT P6SM -SHRA OVC060
     FM290700 VRB05KT P6SM BKN060
     FM291500 13005KT P6SM BKN060
     FM292000 12006KT P6SM -RA BKN050
     FM300000 10004KT P6SM -RA SCT025 BKN040
      AMD NOT SKED=



000
FTUS41 KOKX 282329
TAFJFK
TAF
KJFK 282329Z 2900/3006 15009KT P6SM -SHRA BKN060 OVC100
     FM290400 08007KT P6SM -SHRA OVC060
     FM290700 08012KT P6SM BKN060
     FM292200 10008KT P6SM -RA BKN050
     FM300200 10008KT P6SM -RA SCT025 BKN040=



000
FTUS41 KOKX 282329
TAFGON
TAF
KGON 282329Z 2900/2924 16007KT P6SM OVC150
     FM290200 17006KT P6SM -SHRA BKN060 OVC100
     FM290500 07006KT P6SM -SHRA OVC060
     FM290700 08008KT P6SM OVC060
     FM291600 10010KT P6SM BKN060=



000
FTUS41 KOKX 282119 AAB
TAFEWR
TAF AMD
KEWR 282119Z 2821/2924 15008KT P6SM -RA BKN060 OVC100
     FM290300 07007KT P6SM -RA OVC060
     FM290700 09009KT P6SM BKN060
     FM292100 12008KT P6SM OVC060=



000
FTUS41 KOKX 282119 AAB
TAFSWF
TAF AMD
KSWF 282119Z 2821/2924 VRB06KT P6SM -SHRA OVC060
     FM290700 10005KT P6SM BKN060
     FM291800 13006KT P6SM BKN060
      AMD NOT SKED=



000
FTUS41 KOKX 282119 AAB
TAFBDR
TAF AMD
KBDR 282119Z 2821/2918 19008KT P6SM OVC150
     FM290000 18008KT P6SM -SHRA BKN060 OVC100
     FM290400 10007KT P6SM -RA OVC060
     FM290900 07008KT P6SM OVC060
     FM291600 10010KT P6SM BKN060=



000
FTUS41 KOKX 282119 AAB
TAFLGA
TAF AMD
KLGA 282119Z 2821/2918 17010KT P6SM -RA BKN060 OVC100
     FM290400 10007KT P6SM -RA OVC060
     FM290700 06012KT P6SM BKN060=



000
FTUS41 KOKX 282119 AAB
TAFGON
TAF AMD
KGON 282119Z 2821/2918 16008KT P6SM OVC150
     FM290200 17008KT P6SM -SHRA BKN060 OVC100
     FM290500 07007KT P6SM -RA OVC060
     FM290700 08008KT P6SM OVC060
     FM291600 10010KT P6SM BKN060=



000
FTUS41 KOKX 282119 AAB
TAFTEB
TAF AMD
KTEB 282119Z 2821/2918 17006KT P6SM -RA BKN060 OVC100
     FM290300 07005KT P6SM -RA OVC060
     FM290700 08005KT P6SM OVC060
     FM291500 11008KT P6SM BKN060=



000
FTUS41 KOKX 282119 AAB
TAFISP
TAF AMD
KISP 282119Z 2821/2918 17009KT P6SM OVC200
     FM290000 16009KT P6SM -SHRA BKN060 OVC100
     FM290400 08007KT P6SM -SHRA OVC060
     FM290900 08008KT P6SM OVC060
     FM291600 10010KT P6SM BKN060=



000
FTUS41 KOKX 282119 AAB
TAFJFK
TAF AMD
KJFK 282119Z 2821/2924 15010KT P6SM -RA BKN060 OVC100
     FM290400 08007KT P6SM -RA OVC060
     FM290700 08012KT P6SM BKN060
     FM291800 10010KT P6SM OVC060=



000
FTUS41 KOKX 281931 AAA
TAFGON
TAF AMD
KGON 281931Z 2820/2918 16008KT P6SM OVC150
     FM282100 17008KT P6SM -SHRA BKN060 OVC100
     FM290500 07007KT P6SM -RA OVC060
     FM290900 08008KT P6SM OVC060
     FM291600 10010KT P6SM BKN060=



000
FTUS41 KOKX 281931 AAA
TAFTEB
TAF AMD
KTEB 281931Z 2820/2918 16006KT P6SM OVC150
     FM282100 17006KT P6SM -RA BKN060 OVC100
     FM290300 07005KT P6SM -RA OVC060
     FM290900 08008KT P6SM OVC060
     FM291500 11008KT P6SM BKN060=



000
FTUS41 KOKX 281931 AAA
TAFSWF
TAF AMD
KSWF 281931Z 2820/2924 VRB06KT P6SM OVC150
     FM282100 VRB06KT P6SM -SHRA OVC060
     FM290900 10007KT P6SM BKN060
     FM291800 13006KT P6SM BKN060
      AMD NOT SKED=



000
FTUS41 KOKX 281931 AAA
TAFLGA
TAF AMD
KLGA 281931Z 2820/2918 17010KT P6SM OVC150
     FM282100 17010KT P6SM -RA BKN060 OVC100
     FM290400 10007KT P6SM -RA OVC060
     FM290900 07012KT P6SM BKN060=



000
FTUS41 KOKX 281931 AAA
TAFBDR
TAF AMD
KBDR 281931Z 2820/2918 17008KT P6SM OVC150
     FM282100 18008KT P6SM -SHRA BKN060 OVC100
     FM290400 10007KT P6SM -RA OVC060
     FM290900 07008KT P6SM OVC060
     FM291600 10010KT P6SM BKN060=



000
FTUS41 KOKX 281931 AAA
TAFISP
TAF AMD
KISP 281931Z 2820/2918 14009KT P6SM OVC200
     FM282100 16009KT P6SM -SHRA BKN060 OVC100
     FM290400 08007KT P6SM -SHRA OVC060
     FM290900 08008KT P6SM OVC060
     FM291600 10010KT P6SM BKN060=



000
FTUS41 KOKX 281931 AAA
TAFEWR
TAF AMD
KEWR 281931Z 2820/2924 15008KT P6SM OVC150
     FM282100 16008KT P6SM -RA BKN060 OVC100
     FM290300 07007KT P6SM -RA OVC060
     FM290900 09009KT P6SM BKN060
     FM292100 12008KT P6SM OVC060=



000
FTUS41 KOKX 281931 AAA
TAFJFK
TAF AMD
KJFK 281931Z 2820/2924 15010KT P6SM OVC150
     FM282100 15010KT P6SM -RA BKN060 OVC100
     FM290400 08007KT P6SM -RA OVC060
     FM290900 08012KT P6SM BKN060
     FM291800 10010KT P6SM OVC060=



000
FTUS41 KOKX 281931 AAA
TAFISP
TAF AMD
KISP 281931Z 2820/2918 14009KT P6SM OVC200
     FM282100 16009KT P6SM -SHRA BKN060 OVC100
     FM290400 08007KT P6SM -SHRA OVC060
     FM290900 08008KT P6SM OVC060
     FM291600 10010KT P6SM BKN060=



000
FTUS41 KOKX 281731
TAFTEB
TAF
KTEB 281731Z 2818/2918 14006KT P6SM OVC150
     FM282100 17006KT P6SM -RA BKN060 OVC100
     FM290300 07005KT P6SM -RA OVC060
     FM290900 08008KT P6SM OVC060
     FM291500 11008KT P6SM BKN060=



000
FTUS41 KOKX 281731
TAFLGA
TAF
KLGA 281731Z 2818/2918 16010KT P6SM OVC150
     FM282100 17010KT P6SM -RA BKN060 OVC100
     FM290300 10007KT P6SM -RA OVC060
     FM290900 07012KT P6SM BKN060=



000
FTUS41 KOKX 281731
TAFEWR
TAF
KEWR 281731Z 2818/2924 12008KT P6SM OVC150
     FM282100 15008KT P6SM -RA BKN060 OVC100
     FM290300 07007KT P6SM -RA OVC060
     FM290900 09009KT P6SM BKN060
     FM292100 12008KT P6SM OVC060=



000
FTUS41 KOKX 281731
TAFISP
TAF
KISP 281731Z 2818/2918 15009KT P6SM OVC200
     FM282100 16009KT P6SM -SHRA BKN060 OVC100
     FM290400 08007KT P6SM -SHRA OVC060
     FM290900 08008KT P6SM OVC060
     FM291600 10010KT P6SM BKN060=



000
FTUS41 KOKX 281731
TAFSWF
TAF
KSWF 281731Z 2818/2924 10006KT P6SM OVC150
     FM282100 VRB06KT P6SM -SHRA OVC060
     FM290900 10007KT P6SM BKN060
     FM291800 13006KT P6SM BKN060
      AMD NOT SKED=



000
FTUS41 KOKX 281731
TAFGON
TAF
KGON 281731Z 2818/2918 16008KT P6SM OVC150
     FM282100 17008KT P6SM -SHRA BKN060 OVC100
     FM290400 07007KT P6SM -RA OVC060
     FM290900 08008KT P6SM OVC060
     FM291600 10010KT P6SM BKN060=



000
FTUS41 KOKX 281731
TAFBDR
TAF
KBDR 281731Z 2818/2918 17008KT P6SM OVC150
     FM282100 18008KT P6SM -SHRA BKN060 OVC100
     FM290400 10007KT P6SM -RA OVC060
     FM290900 07008KT P6SM OVC060
     FM291600 10010KT P6SM BKN060=



000
FTUS41 KOKX 281731
TAFJFK
TAF
KJFK 281731Z 2818/2924 15010KT P6SM OVC200
     FM282100 15010KT P6SM -RA BKN060 OVC100
     FM290300 07007KT P6SM -RA OVC060
     FM290900 08012KT P6SM BKN060
     FM291800 10010KT P6SM OVC060=



000
FTUS41 KOKX 281537 AAB
TAFSWF
TAF AMD
KSWF 281537Z 2816/2918 VRB06KT P6SM BKN250
     FM281800 10006KT P6SM OVC150
     FM282100 VRB06KT P6SM -SHRA OVC060
     FM291200 10007KT P6SM BKN060
      AMD NOT SKED=



000
FTUS41 KOKX 281537 AAB
TAFJFK
TAF AMD
KJFK 281537Z 2816/2918 17010KT P6SM OVC200
     FM282100 15010KT P6SM -RA BKN060 OVC100
     FM290300 07007KT P6SM -RA OVC060
     FM291200 08012KT P6SM BKN060=



000
FTUS41 KOKX 281537 AAB
TAFISP
TAF AMD
KISP 281537Z 2816/2912 17009KT P6SM OVC200
     FM282100 15009KT P6SM -SHRA BKN060 OVC100
     FM290400 07007KT P6SM -SHRA OVC060=



000
FTUS41 KOKX 281537 AAB
TAFTEB
TAF AMD
KTEB 281537Z 2816/2912 07006KT P6SM OVC200
     FM281800 14006KT P6SM OVC150
     FM282100 17006KT P6SM -RA BKN060 OVC100
     FM290300 07005KT P6SM -RA OVC060=



000
FTUS41 KOKX 281537 AAB
TAFEWR
TAF AMD
KEWR 281537Z 2816/2918 10008KT P6SM OVC200
     FM281800 12008KT P6SM OVC150
     FM282100 15008KT P6SM -RA BKN060 OVC100
     FM290300 07007KT P6SM -RA OVC060
     FM291200 09009KT P6SM BKN060=



000
FTUS41 KOKX 281537 AAB
TAFLGA
TAF AMD
KLGA 281537Z 2816/2912 07010KT P6SM OVC200
     FM281800 13010KT P6SM OVC150
     FM282100 15010KT P6SM -RA BKN060 OVC100
     FM290300 08007KT P6SM -RA OVC060=



000
FTUS41 KOKX 281537 AAB
TAFBDR
TAF AMD
KBDR 281537Z 2816/2912 13008KT P6SM OVC200
     FM281800 17008KT P6SM OVC150
     FM282100 18008KT P6SM -SHRA BKN060 OVC100
     FM290400 10007KT P6SM -SHRA OVC060=



000
FTUS41 KOKX 281537 AAB
TAFGON
TAF AMD
KGON 281537Z 2816/2912 17008KT P6SM OVC150
     FM282100 16008KT P6SM -SHRA BKN060 OVC100
     FM290400 07007KT P6SM -SHRA OVC060=



000
FTUS41 KOKX 281330 AAA
TAFISP
TAF AMD
KISP 281330Z 2814/2912 03008KT P6SM OVC200
     FM281500 07009KT P6SM OVC200
     FM281800 12010KT P6SM OVC150
     FM282100 14009KT P6SM -SHRA BKN060 OVC100
     FM290400 07007KT P6SM -SHRA OVC060=



000
FTUS41 KOKX 281330 AAA
TAFBDR
TAF AMD
KBDR 281330Z 2814/2912 03008KT P6SM OVC200
     FM281500 13008KT P6SM OVC200
     FM281800 15008KT P6SM OVC150
     FM282100 16008KT P6SM -SHRA BKN060 OVC100
     FM290400 07007KT P6SM -SHRA OVC060=



000
FTUS41 KOKX 281330 AAA
TAFTEB
TAF AMD
KTEB 281330Z 2814/2912 04006KT P6SM OVC200
     FM281500 07006KT P6SM OVC200
     FM281800 14006KT P6SM OVC150
     FM282100 15006KT P6SM -RA BKN060 OVC100
     FM290300 07005KT P6SM -RA OVC060=



000
FTUS41 KOKX 281330 AAA
TAFLGA
TAF AMD
KLGA 281330Z 2814/2912 06010KT P6SM OVC200
     FM281800 09010KT P6SM OVC150
     FM282100 13010KT P6SM -RA BKN060 OVC100
     FM290300 08007KT P6SM -RA OVC060=



000
FTUS41 KOKX 281330 AAA
TAFJFK
TAF AMD
KJFK 281330Z 2814/2918 04010KT P6SM OVC200
     FM281500 07010KT P6SM OVC200
     FM281800 13010KT P6SM OVC150
     FM282100 12010KT P6SM -RA BKN060 OVC100
     FM290300 07007KT P6SM -RA OVC060
     FM291200 08012KT P6SM BKN060=



000
FTUS41 KOKX 281330 AAA
TAFGON
TAF AMD
KGON 281330Z 2814/2912 14007KT P6SM OVC200
     FM281800 17008KT P6SM OVC150
     FM282100 16008KT P6SM -SHRA BKN060 OVC100
     FM290400 07007KT P6SM -SHRA OVC060=



000
FTUS41 KOKX 281330 AAA
TAFEWR
TAF AMD
KEWR 281330Z 2814/2918 04009KT P6SM OVC200
     FM281500 07008KT P6SM OVC200
     FM281800 12008KT P6SM OVC150
     FM282100 14008KT P6SM -RA BKN060 OVC100
     FM290300 07007KT P6SM -RA OVC060
     FM291200 09009KT P6SM BKN060=



000
FTUS41 KOKX 281330 AAA
TAFSWF
TAF AMD
KSWF 281330Z 2814/2918 07006KT P6SM BKN250
     FM281800 10006KT P6SM OVC150
     FM282100 VRB06KT P6SM -SHRA OVC060
     FM291200 10007KT P6SM BKN060
      AMD NOT SKED=



000
FTUS41 KOKX 281123
TAFJFK
TAF
KJFK 281123Z 2812/2918 04010KT P6SM OVC200
     FM281500 07010KT P6SM OVC200
     FM281800 13010KT P6SM OVC150
     FM282100 12010KT P6SM -RA BKN060 OVC100
     FM290300 07007KT P6SM -RA OVC060
     FM291200 08012KT P6SM BKN060=



000
FTUS41 KOKX 281123
TAFTEB
TAF
KTEB 281123Z 2812/2912 03006KT P6SM OVC200
     FM281500 07006KT P6SM OVC200
     FM281800 14006KT P6SM OVC150
     FM282100 15006KT P6SM -RA BKN060 OVC100
     FM290300 07005KT P6SM -RA OVC060=



000
FTUS41 KOKX 281123
TAFBDR
TAF
KBDR 281123Z 2812/2912 03008KT P6SM OVC200
     FM281500 13008KT P6SM OVC200
     FM281800 15008KT P6SM OVC150
     FM282100 16008KT P6SM -SHRA BKN060 OVC100
     FM290400 07007KT P6SM -SHRA OVC060=



000
FTUS41 KOKX 281123
TAFLGA
TAF
KLGA 281123Z 2812/2912 04010KT P6SM OVC200
     FM281500 06010KT P6SM OVC200
     FM281800 09010KT P6SM OVC150
     FM282100 13010KT P6SM -RA BKN060 OVC100
     FM290300 08007KT P6SM -RA OVC060=



000
FTUS41 KOKX 281123
TAFSWF
TAF
KSWF 281123Z 2812/2918 VRB06KT P6SM BKN250
     FM281500 07006KT P6SM OVC200
     FM281800 10006KT P6SM OVC150
     FM282100 VRB06KT P6SM -SHRA OVC060
     FM291200 10007KT P6SM BKN060
      AMD NOT SKED=



000
FTUS41 KOKX 281123
TAFGON
TAF
KGON 281123Z 2812/2912 03007KT P6SM OVC200
     FM281500 14007KT P6SM OVC200
     FM281800 17008KT P6SM OVC150
     FM282100 16008KT P6SM -SHRA BKN060 OVC100
     FM290400 07007KT P6SM -SHRA OVC060=



000
FTUS41 KOKX 281123
TAFISP
TAF
KISP 281123Z 2812/2912 03008KT P6SM OVC200
     FM281500 07009KT P6SM OVC200
     FM281800 12010KT P6SM OVC150
     FM282100 14009KT P6SM -SHRA BKN060 OVC100
     FM290400 07007KT P6SM -SHRA OVC060=



000
FTUS41 KOKX 281123
TAFEWR
TAF
KEWR 281123Z 2812/2918 03009KT P6SM OVC200
     FM281500 07008KT P6SM OVC200
     FM281800 12008KT P6SM OVC150
     FM282100 14008KT P6SM -RA BKN060 OVC100
     FM290300 07007KT P6SM -RA OVC060
     FM291200 09009KT P6SM BKN060=



000
FTUS41 KOKX 280833 AAA
TAFBDR
TAF AMD
KBDR 280833Z 2809/2906 01006KT P6SM BKN250
     FM281100 03008KT P6SM OVC200
     FM281500 13008KT P6SM OVC200
     FM281800 15008KT P6SM OVC150
     FM282100 16008KT P6SM -SHRA BKN060 OVC100
     FM290400 07007KT P6SM -SHRA OVC060=



000
FTUS41 KOKX 280833 AAA
TAFGON
TAF AMD
KGON 280833Z 2809/2906 01006KT P6SM BKN250
     FM281100 03007KT P6SM OVC200
     FM281500 14007KT P6SM OVC200
     FM281800 17008KT P6SM OVC150
     FM282100 16008KT P6SM -SHRA BKN060 OVC100
     FM290400 07007KT P6SM -SHRA OVC060=



000
FTUS41 KOKX 280833 AAA
TAFISP
TAF AMD
KISP 280833Z 2809/2906 01006KT P6SM BKN250
     FM281100 03008KT P6SM OVC200
     FM281500 07009KT P6SM OVC200
     FM281800 12010KT P6SM OVC150
     FM282100 14009KT P6SM -SHRA BKN060 OVC100
     FM290400 07007KT P6SM -SHRA OVC060=



000
FTUS41 KOKX 280833 AAA
TAFSWF
TAF AMD
KSWF 280833Z 2809/2912 VRB06KT P6SM BKN250
     FM281500 07006KT P6SM OVC200
     FM281800 10006KT P6SM OVC150
     FM282100 VRB06KT P6SM -SHRA OVC060
      AMD NOT SKED=



000
FTUS41 KOKX 280833 AAA
TAFEWR
TAF AMD
KEWR 280833Z 2809/2912 03008KT P6SM BKN250
     FM281100 03008KT P6SM OVC200
     FM281500 07008KT P6SM OVC200
     FM281800 12008KT P6SM OVC150
     FM282100 14008KT P6SM -RA BKN060 OVC100
     FM290300 07007KT P6SM -RA OVC060=



000
FTUS41 KOKX 280833 AAA
TAFTEB
TAF AMD
KTEB 280833Z 2809/2906 03005KT P6SM BKN250
     FM281100 03006KT P6SM OVC200
     FM281500 07006KT P6SM OVC200
     FM281800 14006KT P6SM OVC150
     FM282100 15006KT P6SM -RA BKN060 OVC100
     FM290300 07005KT P6SM -RA OVC060=



000
FTUS41 KOKX 280833 AAA
TAFLGA
TAF AMD
KLGA 280833Z 2809/2906 04009KT P6SM BKN250
     FM281100 04010KT P6SM OVC200
     FM281500 06010KT P6SM OVC200
     FM281800 09010KT P6SM OVC150
     FM282100 13010KT P6SM -RA BKN060 OVC100
     FM290300 08007KT P6SM -RA OVC060=



000
FTUS41 KOKX 280833 AAA
TAFJFK
TAF AMD
KJFK 280833Z 2809/2912 03008KT P6SM BKN250
     FM281100 03010KT P6SM OVC200
     FM281500 07010KT P6SM OVC200
     FM281800 13010KT P6SM OVC150
     FM282100 12010KT P6SM -RA BKN060 OVC100
     FM290300 07007KT P6SM -RA OVC060=



000
FTUS41 KOKX 280520
TAFLGA
TAF
KLGA 280520Z 2806/2906 VRB06KT P6SM BKN250
     FM280800 02009KT P6SM BKN250
     FM281100 04010KT P6SM OVC200
     FM281500 06010KT P6SM OVC200
     FM281800 09010KT P6SM OVC150
     FM282100 13010KT P6SM -RA BKN060 OVC100
     FM290300 08007KT P6SM -RA OVC060=



000
FTUS41 KOKX 280520
TAFEWR
TAF
KEWR 280520Z 2806/2912 VRB06KT P6SM BKN250
     FM280800 02008KT P6SM BKN250
     FM281100 03008KT P6SM OVC200
     FM281500 07008KT P6SM OVC200
     FM281800 12008KT P6SM OVC150
     FM282100 14008KT P6SM -RA BKN060 OVC100
     FM290300 07007KT P6SM -RA OVC060=



000
FTUS41 KOKX 280520
TAFTEB
TAF
KTEB 280520Z 2806/2906 VRB03KT P6SM BKN250
     FM281100 03006KT P6SM OVC200
     FM281500 07006KT P6SM OVC200
     FM281800 14006KT P6SM OVC150
     FM282100 15006KT P6SM -RA BKN060 OVC100
     FM290300 07005KT P6SM -RA OVC060=



000
FTUS41 KOKX 280520
TAFBDR
TAF
KBDR 280520Z 2806/2906 VRB05KT P6SM BKN250
     FM280800 01006KT P6SM BKN250
     FM281100 03008KT P6SM OVC200
     FM281500 13008KT P6SM OVC200
     FM281800 15008KT P6SM OVC150
     FM282100 16008KT P6SM -SHRA BKN060 OVC100
     FM290400 07007KT P6SM -SHRA OVC060=



000
FTUS41 KOKX 280520
TAFSWF
TAF
KSWF 280520Z 2806/2912 VRB06KT P6SM BKN250
     FM281500 07006KT P6SM OVC200
     FM281800 10006KT P6SM OVC150
     FM282100 VRB06KT P6SM -SHRA OVC060
      AMD NOT SKED=



000
FTUS41 KOKX 280520
TAFGON
TAF
KGON 280520Z 2806/2906 VRB05KT P6SM BKN250
     FM280800 01006KT P6SM BKN250
     FM281100 03007KT P6SM OVC200
     FM281500 14007KT P6SM OVC200
     FM281800 17008KT P6SM OVC150
     FM282100 16008KT P6SM -SHRA BKN060 OVC100
     FM290400 07007KT P6SM -SHRA OVC060=



000
FTUS41 KOKX 280520
TAFJFK
TAF
KJFK 280520Z 2806/2912 VRB06KT P6SM BKN250
     FM280800 02008KT P6SM BKN250
     FM281100 03010KT P6SM OVC200
     FM281500 07010KT P6SM OVC200
     FM281800 13010KT P6SM OVC150
     FM282100 12010KT P6SM -RA BKN060 OVC100
     FM290300 07007KT P6SM -RA OVC060=



000
FTUS41 KOKX 280520
TAFISP
TAF
KISP 280520Z 2806/2906 VRB05KT P6SM BKN250
     FM280800 02006KT P6SM BKN250
     FM281100 03008KT P6SM OVC200
     FM281500 07009KT P6SM OVC200
     FM281800 12010KT P6SM OVC150
     FM282100 14009KT P6SM -SHRA BKN060 OVC100
     FM290400 07007KT P6SM -SHRA OVC060=



000
FTUS41 KOKX 280243 AAA
TAFJFK
TAF AMD
KJFK 280243Z 2803/2906 22010KT P6SM SCT250
     FM280500 33007KT P6SM BKN250
     FM280800 02008KT P6SM BKN250
     FM281100 03010KT P6SM OVC200
     FM281500 07010KT P6SM OVC200
     FM281800 14012KT P6SM OVC150 PROB30 2821/2903 -RA
     FM290300 07007KT P6SM OVC080 PROB30 2903/2906 -RA=



000
FTUS41 KOKX 280243 AAA
TAFLGA
TAF AMD
KLGA 280243Z 2803/2824 23007KT P6SM SCT250
     FM280500 33007KT P6SM BKN250
     FM280800 03008KT P6SM BKN250
     FM281100 05010KT P6SM OVC200
     FM281800 08010KT P6SM OVC200
     FM282000 12010KT P6SM OVC150 PROB30 2821/2824 -RA=



000
FTUS41 KOKX 280243 AAA
TAFTEB
TAF AMD
KTEB 280243Z 2803/2824 24007KT P6SM SCT250
     FM280500 VRB03KT P6SM SCT250
     FM280900 01005KT P6SM BKN250
     FM281100 04006KT P6SM OVC200
     FM281800 13007KT P6SM OVC200 PROB30 2821/2824 -RA=



000
FTUS41 KOKX 280243 AAA
TAFBDR
TAF AMD
KBDR 280243Z 2803/2824 VRB05KT P6SM SCT250
     FM280500 36005KT P6SM BKN250
     FM280900 03009KT P6SM OVC200
     FM281800 14007KT P6SM OVC200=



000
FTUS41 KOKX 280243 AAA
TAFISP
TAF AMD
KISP 280243Z 2803/2824 25005KT P6SM SCT250
     FM280500 33005KT P6SM BKN250
     FM280900 03005KT P6SM OVC200
     FM281800 13009KT P6SM OVC200=



000
FTUS41 KOKX 280243 AAB
TAFEWR
TAF AMD
KEWR 280243Z 2803/2906 24010KT P6SM SCT250
     FM280500 34006KT P6SM BKN250
     FM280800 02008KT P6SM BKN250
     FM281100 03010KT P6SM OVC200
     FM281500 06008KT P6SM OVC200
     FM281800 13008KT P6SM OVC150 PROB30 2821/2903 -RA
     FM290300 06006KT P6SM OVC080 PROB30 2903/2906 -RA=



000
FTUS41 KOKX 280243 AAA
TAFLGA
TAF AMD
KLGA 280243Z 2803/2824 23007KT P6SM SCT250
     FM280500 33007KT P6SM BKN250
     FM280800 03008KT P6SM BKN250
     FM281100 05010KT P6SM OVC200
     FM281800 08010KT P6SM OVC200
     FM282000 12010KT P6SM OVC150 PROB30 2821/2824 -RA=



000
FTUS41 KOKX 280243 AAA
TAFTEB
TAF AMD
KTEB 280243Z 2803/2824 24007KT P6SM SCT250
     FM280500 VRB03KT P6SM SCT250
     FM280900 01005KT P6SM BKN250
     FM281100 04006KT P6SM OVC200
     FM281800 13007KT P6SM OVC200 PROB30 2821/2824 -RA=



000
FTUS41 KOKX 280243 AAA
TAFBDR
TAF AMD
KBDR 280243Z 2803/2824 VRB05KT P6SM SCT250
     FM280500 36005KT P6SM BKN250
     FM280900 03009KT P6SM OVC200
     FM281800 14007KT P6SM OVC200=



000
FTUS41 KOKX 280243 AAA
TAFJFK
TAF AMD
KJFK 280243Z 2803/2906 22010KT P6SM SCT250
     FM280500 33007KT P6SM BKN250
     FM280800 02008KT P6SM BKN250
     FM281100 03010KT P6SM OVC200
     FM281500 07010KT P6SM OVC200
     FM281800 14012KT P6SM OVC150 PROB30 2821/2903 -RA
     FM290300 07007KT P6SM OVC080 PROB30 2903/2906 -RA=



000
FTUS41 KOKX 280243 AAB
TAFEWR
TAF AMD
KEWR 280243Z 2803/2906 24010KT P6SM SCT250
     FM280500 34006KT P6SM BKN250
     FM280800 02008KT P6SM BKN250
     FM281100 03010KT P6SM OVC200
     FM281500 06008KT P6SM OVC200
     FM281800 13008KT P6SM OVC150 PROB30 2821/2903 -RA
     FM290300 06006KT P6SM OVC080 PROB30 2903/2906 -RA=



000
FTUS41 KOKX 280243 AAA
TAFISP
TAF AMD
KISP 280243Z 2803/2824 25005KT P6SM SCT250
     FM280500 33005KT P6SM BKN250
     FM280900 03005KT P6SM OVC200
     FM281800 13009KT P6SM OVC200=



000
FTUS41 KOKX 280243 AAC
TAFGON
TAF AMD
KGON 280243Z 2803/2824 26005KT P6SM SCT250
     FM280500 34007KT P6SM BKN250
     FM281100 03008KT P6SM OVC200
     FM281600 16009KT P6SM OVC200=



000
FTUS41 KOKX 280243 AAC
TAFGON
TAF AMD
KGON 280243Z 2803/2824 26005KT P6SM SCT250
     FM280500 34007KT P6SM BKN250
     FM281100 03008KT P6SM OVC200
     FM281600 16009KT P6SM OVC200=



000
FTUS41 KOKX 280059 AAA
TAFEWR
TAF AMD
KEWR 280059Z 2801/2906 24010KT P6SM SCT250
     FM280500 34006KT P6SM SCT250
     FM280800 02008KT P6SM BKN250
     FM281100 03010KT P6SM OVC200
     FM281500 06008KT P6SM OVC200
     FM281800 13008KT P6SM OVC150 PROB30 2821/2903 -RA
     FM290300 06006KT P6SM OVC080 PROB30 2903/2906 -RA=



000
FTUS41 KOKX 280059 AAA
TAFEWR
TAF AMD
KEWR 280059Z 2801/2906 24010KT P6SM SCT250
     FM280500 34006KT P6SM SCT250
     FM280800 02008KT P6SM BKN250
     FM281100 03010KT P6SM OVC200
     FM281500 06008KT P6SM OVC200
     FM281800 13008KT P6SM OVC150 PROB30 2821/2903 -RA
     FM290300 06006KT P6SM OVC080 PROB30 2903/2906 -RA=



000
FTUS41 KOKX 280000 RRA
TAFSWF
TAF
KSWF 280000Z 2800/2906 24006KT P6SM SKC
     FM280200 VRB04KT P6SM SKC
     FM281200 07006KT P6SM OVC200
     FM281800 VRB05KT P6SM OVC200 PROB30 2821/2903 -RA
     FM290300 VRB03KT P6SM OVC080 PROB30 2903/2906 -RA
      AMD NOT SKED=



000
FTUS41 KOKX 280000 RRA
TAFGON
TAF
KGON 280000Z 2800/2824 23010KT P6SM SKC
     FM280200 26005KT P6SM SKC
     FM280500 34007KT P6SM SCT250
     FM281100 03008KT P6SM OVC200
     FM281600 16009KT P6SM OVC200=



000
FTUS41 KOKX 272353
TAFBDR
TAF
KBDR 272353Z 2800/2824 21010KT P6SM SKC
     FM280200 VRB05KT P6SM SKC
     FM280500 36005KT P6SM SCT250
     FM280900 03009KT P6SM OVC200
     FM281800 14007KT P6SM OVC200=



000
FTUS41 KOKX 272353
TAFISP
TAF
KISP 272353Z 2800/2824 21008KT P6SM FEW250
     FM280200 25005KT P6SM FEW250
     FM280500 33005KT P6SM SCT250
     FM280900 03005KT P6SM OVC200
     FM281800 13009KT P6SM OVC200=



000
FTUS41 KOKX 272337
TAFLGA
TAF
KLGA 272337Z 2800/2824 18010KT P6SM SCT250
     FM280300 23007KT P6SM SCT250
     FM280500 33007KT P6SM SCT250
     FM280800 03008KT P6SM BKN250
     FM281100 05010KT P6SM OVC200
     FM281800 08010KT P6SM OVC200
     FM282000 12010KT P6SM OVC150 PROB30 2821/2824 -RA=



000
FTUS41 KOKX 272337
TAFJFK
TAF
KJFK 272337Z 2800/2906 19010KT P6SM SCT250
     FM280300 21007KT P6SM SCT250
     FM280500 33007KT P6SM SCT250
     FM280800 02008KT P6SM BKN250
     FM281100 03010KT P6SM OVC200
     FM281500 07010KT P6SM OVC200
     FM281800 14012KT P6SM OVC150 PROB30 2821/2903 -RA
     FM290300 07007KT P6SM OVC080 PROB30 2903/2906 -RA=



000
FTUS41 KOKX 272337
TAFEWR
TAF
KEWR 272337Z 2800/2906 18006KT P6SM SCT250
     FM280200 24006KT P6SM SCT250
     FM280500 34006KT P6SM SCT250
     FM280800 02008KT P6SM BKN250
     FM281100 03010KT P6SM OVC200
     FM281500 06008KT P6SM OVC200
     FM281800 13008KT P6SM OVC150 PROB30 2821/2903 -RA
     FM290300 06006KT P6SM OVC080 PROB30 2903/2906 -RA=



000
FTUS41 KOKX 272337
TAFTEB
TAF
KTEB 272337Z 2800/2824 19009KT P6SM SCT250
     FM280200 24007KT P6SM SCT250
     FM280400 VRB03KT P6SM SCT250
     FM280900 01005KT P6SM BKN250
     FM281100 04006KT P6SM OVC200
     FM281800 13007KT P6SM OVC200 PROB30 2821/2824 -RA=



000
FTUS41 KOKX 272127 AAB
TAFBDR
TAF AMD
KBDR 272127Z 2721/2818 20010KT P6SM SKC
     FM280100 23008KT P6SM SKC
     FM280400 VRB05KT P6SM SKC
     FM281400 08009KT P6SM SKC=



000
FTUS41 KOKX 272127 AAB
TAFTEB
TAF AMD
KTEB 272127Z 2721/2818 19009KT P6SM SCT040
     FM280200 VRB03KT P6SM SKC
     FM281600 08006KT P6SM SCT150 BKN250=



000
FTUS41 KOKX 272127 AAB
TAFISP
TAF AMD
KISP 272127Z 2721/2818 20010KT P6SM FEW035 SCT250
     FM280100 21006KT P6SM SKC
     FM280400 VRB04KT P6SM SKC
     FM281600 08007KT P6SM SCT150 BKN250=



000
FTUS41 KOKX 272127 AAB
TAFLGA
TAF AMD
KLGA 272127Z 2721/2818 18010KT P6SM FEW040 SCT250
     FM280200 23006KT P6SM SKC
     FM280500 VRB05KT P6SM FEW250
     FM281000 03008KT P6SM FEW250
     FM281400 09007KT P6SM FEW150 FEW250=



000
FTUS41 KOKX 272127 AAB
TAFGON
TAF AMD
KGON 272127Z 2721/2818 18012KT P6SM SKC
     FM272300 23007KT P6SM SKC
     FM280200 VRB03KT P6SM SKC
     FM281700 13006KT P6SM FEW250=



000
FTUS41 KOKX 272127 AAB
TAFJFK
TAF AMD
KJFK 272127Z 2721/2824 19010KT P6SM FEW035 BKN250
     FM280300 22005KT P6SM SKC
     FM280500 VRB05KT P6SM FEW250
     FM280900 02008KT P6SM FEW200 FEW250
     FM281400 06009KT P6SM FEW150 FEW250
     FM281700 10007KT P6SM SCT140 BKN250
     FM282000 14007KT P6SM SCT120 OVC250=



000
FTUS41 KOKX 272057 CCA
TAFEWR
TAF COR
KEWR 272057Z 2721/2824 15009G15KT P6SM SCT040 BKN250
     FM280000 17006KT P6SM FEW040 SCT250
     FM280300 VRB04KT P6SM FEW250
     FM281200 04008KT P6SM SCT250
     FM281700 12006KT P6SM SCT130 BKN250 PROB30 2820/2824 4SM -RA
      BKN090=



000
FTUS41 KOKX 272056 AAB
TAFEWR
TAF AMD
KEWR 272056Z 2721/2824 15009G15KT P6SM SCT040 BKN250
     FM280300 VRB04KT P6SM FEW250
     FM281200 04008KT P6SM SCT250
     FM281700 12006KT P6SM SCT130 BKN250 PROB30 2820/2824 4SM -RA
      BKN090=



000
FTUS41 KOKX 272056 AAB
TAFEWR
TAF AMD
KEWR 272056Z 2721/2824 15009G15KT P6SM SCT040 BKN250
     FM280300 VRB04KT P6SM FEW250
     FM281200 04008KT P6SM SCT250
     FM281700 12006KT P6SM SCT130 BKN250 PROB30 2820/2824 4SM -RA
      BKN090=



000
FTUS41 KOKX 271930 AAA
TAFLGA
TAF AMD
KLGA 271930Z 2720/2818 18010KT P6SM FEW050 FEW250
     FM280200 23006KT P6SM SKC
     FM280500 VRB05KT P6SM FEW250
     FM281000 03008KT P6SM FEW250
     FM281400 09007KT P6SM FEW150 FEW250=



000
FTUS41 KOKX 271930 AAA
TAFJFK
TAF AMD
KJFK 271930Z 2720/2824 19010KT P6SM FEW050
     FM280300 22005KT P6SM SKC
     FM280500 VRB05KT P6SM FEW250
     FM280900 02008KT P6SM FEW200 FEW250
     FM281400 06009KT P6SM FEW150 FEW250
     FM281700 10007KT P6SM SCT140 BKN250
     FM282000 14007KT P6SM SCT120 OVC250=



000
FTUS41 KOKX 271930 AAA
TAFISP
TAF AMD
KISP 271930Z 2720/2818 16010KT P6SM FEW250
     FM280100 21006KT P6SM SKC
     FM280400 VRB04KT P6SM SKC
     FM281600 08007KT P6SM SCT150 BKN250=



000
FTUS41 KOKX 271930 AAA
TAFGON
TAF AMD
KGON 271930Z 2720/2818 18012KT P6SM SKC
     FM272300 23007KT P6SM SKC
     FM280200 VRB03KT P6SM SKC
     FM281700 13006KT P6SM FEW250=



000
FTUS41 KOKX 271930 AAA
TAFBDR
TAF AMD
KBDR 271930Z 2720/2818 18010KT P6SM FEW250
     FM280100 23008KT P6SM SKC
     FM280400 VRB05KT P6SM SKC
     FM281400 08009KT P6SM SKC=



000
FTUS41 KOKX 271930 AAA
TAFTEB
TAF AMD
KTEB 271930Z 2720/2818 21009KT P6SM SCT050
     FM280200 VRB03KT P6SM SKC
     FM281600 08006KT P6SM SCT150 BKN250=



000
FTUS41 KOKX 271930 AAA
TAFEWR
TAF AMD
KEWR 271930Z 2720/2824 20008KT P6SM FEW070 SCT100
     FM280300 VRB04KT P6SM FEW250
     FM281200 04008KT P6SM SCT250
     FM281700 12006KT P6SM SCT130 BKN250 PROB30 2820/2824 4SM -RA
      BKN090=



000
FTUS41 KOKX 271930 AAA
TAFSWF
TAF AMD
KSWF 271930Z 2720/2824 19006KT P6SM FEW050
     FM272100 26009KT P6SM SKC
     FM280100 VRB03KT P6SM SKC
     FM281500 09005KT P6SM SCT130 BKN250
     FM281900 12008KT P6SM BKN150 OVC250
      AMD NOT SKED=



000
FTUS41 KOKX 271725
TAFSWF
TAF
KSWF 271725Z 2718/2824 19006KT P6SM FEW050
     FM272100 26009KT P6SM SKC
     FM280100 VRB03KT P6SM SKC
     FM281500 09005KT P6SM SCT130 BKN250
     FM281900 12008KT P6SM BKN150 OVC250
      AMD NOT SKED=



000
FTUS41 KOKX 271725
TAFBDR
TAF
KBDR 271725Z 2718/2818 16010KT P6SM FEW250
     FM280100 23008KT P6SM SKC
     FM280400 VRB05KT P6SM SKC
     FM281400 08009KT P6SM SKC=



000
FTUS41 KOKX 271725
TAFLGA
TAF
KLGA 271725Z 2718/2818 VRB05KT P6SM FEW050
     FM272000 19008KT P6SM FEW050 FEW250
     FM280200 23006KT P6SM SKC
     FM280500 VRB05KT P6SM FEW250
     FM281000 03008KT P6SM FEW250
     FM281400 09007KT P6SM FEW150 FEW250=



000
FTUS41 KOKX 271725
TAFGON
TAF
KGON 271725Z 2718/2818 20010KT P6SM SKC
     FM272300 23007KT P6SM SKC
     FM280200 VRB03KT P6SM SKC
     FM281700 13006KT P6SM FEW250=



000
FTUS41 KOKX 271725
TAFEWR
TAF
KEWR 271725Z 2718/2824 VRB05KT P6SM BKN040
     FM272000 22008KT P6SM FEW070 SCT100
     FM280300 VRB04KT P6SM FEW250
     FM281200 04008KT P6SM SCT250
     FM281700 12006KT P6SM SCT130 BKN250 PROB30 2820/2824 4SM -RA
      BKN090=



000
FTUS41 KOKX 271725
TAFISP
TAF
KISP 271725Z 2718/2818 16010KT P6SM FEW250
     FM280100 21006KT P6SM SKC
     FM280400 VRB04KT P6SM SKC
     FM281600 08007KT P6SM SCT150 BKN250=



000
FTUS41 KOKX 271725
TAFJFK
TAF
KJFK 271725Z 2718/2824 19010KT P6SM FEW050
     FM280300 22005KT P6SM SKC
     FM280500 VRB05KT P6SM FEW250
     FM280900 02008KT P6SM FEW200 FEW250
     FM281400 06009KT P6SM FEW150 FEW250
     FM281700 10007KT P6SM SCT140 BKN250
     FM282000 14007KT P6SM SCT120 OVC250=



000
FTUS41 KOKX 271725
TAFTEB
TAF
KTEB 271725Z 2718/2818 21009KT P6SM SCT050
     FM280200 VRB03KT P6SM SKC
     FM281600 08006KT P6SM SCT150 BKN250=



000
FTUS41 KOKX 271557 AAC
TAFJFK
TAF AMD
KJFK 271557Z 2716/2818 18008KT P6SM FEW035 SCT050
     FM271700 18010KT P6SM FEW050
     FM280200 VRB05KT P6SM FEW050
     FM280900 03006KT P6SM FEW050
     FM281300 08009KT P6SM SCT050=



000
FTUS41 KOKX 271530 AAB
TAFJFK
TAF AMD
KJFK 271530Z 2716/2818 VRB04KT P6SM FEW035 SCT050
     FM271700 17010KT P6SM FEW050
     FM280200 VRB05KT P6SM FEW050
     FM280900 03006KT P6SM FEW050
     FM281300 08009KT P6SM SCT050=



000
FTUS41 KOKX 271530 AAB
TAFISP
TAF AMD
KISP 271530Z 2716/2812 VRB05KT P6SM FEW035 SCT050
     FM271900 18010KT P6SM FEW050
     FM280200 VRB05KT P6SM FEW050
     FM280800 02006KT P6SM FEW050=



000
FTUS41 KOKX 271530 AAB
TAFBDR
TAF AMD
KBDR 271530Z 2716/2812 14010KT P6SM SKC
     FM271700 20010KT P6SM FEW050
     FM280200 VRB05KT P6SM FEW050
     FM280800 02006KT P6SM FEW050=



000
FTUS41 KOKX 271530 AAB
TAFSWF
TAF AMD
KSWF 271530Z 2716/2818 VRB05KT P6SM FEW050
     FM271800 28008KT P6SM FEW050
     FM280200 VRB04KT P6SM FEW050
     FM281500 05006KT P6SM SCT050
      AMD NOT SKED=



000
FTUS41 KOKX 271530 AAB
TAFEWR
TAF AMD
KEWR 271530Z 2716/2818 VRB05KT P6SM SCT035 SCT050
     FM271900 15008KT P6SM FEW050
     FM280200 VRB05KT P6SM FEW050
     FM280800 03006KT P6SM FEW050
     FM281300 08008KT P6SM SCT050=



000
FTUS41 KOKX 271530 AAB
TAFGON
TAF AMD
KGON 271530Z 2716/2812 20009KT P6SM FEW050
     FM280200 VRB05KT P6SM FEW050
     FM280800 01006KT P6SM FEW050=



000
FTUS41 KOKX 271530 AAB
TAFLGA
TAF AMD
KLGA 271530Z 2716/2812 06008KT P6SM FEW035 SCT050
     FM271900 18008KT P6SM FEW050
     FM280200 VRB05KT P6SM FEW050
     FM280900 02006KT P6SM FEW050=



000
FTUS41 KOKX 271530 AAB
TAFTEB
TAF AMD
KTEB 271530Z 2716/2812 VRB05KT P6SM SCT035 SCT050
     FM272000 17007KT P6SM FEW050
     FM280200 VRB05KT P6SM FEW050
     FM280800 03006KT P6SM FEW050=



000
FTUS41 KOKX 271331 AAA
TAFLGA
TAF AMD
KLGA 271331Z 2714/2812 05008KT P6SM FEW017 BKN035
     FM271500 05008KT P6SM FEW035 SCT050
     FM271900 18008KT P6SM FEW050
     FM280200 VRB05KT P6SM FEW050
     FM280900 02006KT P6SM FEW050=



000
FTUS41 KOKX 271331 AAA
TAFISP
TAF AMD
KISP 271331Z 2714/2812 03008KT P6SM FEW035 SCT050
     FM271900 18010KT P6SM FEW050
     FM280200 VRB05KT P6SM FEW050
     FM280800 02006KT P6SM FEW050=



000
FTUS41 KOKX 271331 AAA
TAFEWR
TAF AMD
KEWR 271331Z 2714/2818 03008KT P6SM SCT025 BKN035
     FM271500 05008KT P6SM SCT035 SCT050
     FM271900 15008KT P6SM FEW050
     FM280200 VRB05KT P6SM FEW050
     FM280800 03006KT P6SM FEW050
     FM281300 08008KT P6SM SCT050=



000
FTUS41 KOKX 271331 AAA
TAFTEB
TAF AMD
KTEB 271331Z 2714/2812 02005KT P6SM SCT025 BKN035
     FM271500 02005KT P6SM SCT035 SCT050
     FM272000 17007KT P6SM FEW050
     FM280200 VRB05KT P6SM FEW050
     FM280800 03006KT P6SM FEW050=



000
FTUS41 KOKX 271331 AAA
TAFJFK
TAF AMD
KJFK 271331Z 2714/2818 03008KT P6SM FEW015 BKN040
     FM271500 04008KT P6SM FEW035 SCT050
     FM271700 17010KT P6SM FEW050
     FM280200 VRB05KT P6SM FEW050
     FM280900 03006KT P6SM FEW050
     FM281300 08009KT P6SM SCT050=



000
FTUS41 KOKX 271331 AAA
TAFSWF
TAF AMD
KSWF 271331Z 2714/2818 VRB04KT P6SM BKN015 BKN035
     FM271430 04005KT P6SM FEW050
     FM271800 28008KT P6SM FEW050
     FM280200 VRB04KT P6SM FEW050
     FM281500 05006KT P6SM SCT050
      AMD NOT SKED=



000
FTUS41 KOKX 271331 AAA
TAFGON
TAF AMD
KGON 271331Z 2714/2812 32007KT P6SM SKC
     FM271600 20009KT P6SM FEW050
     FM280200 VRB05KT P6SM FEW050
     FM280800 01006KT P6SM FEW050=



000
FTUS41 KOKX 271331 AAA
TAFBDR
TAF AMD
KBDR 271331Z 2714/2812 03008KT P6SM FEW035 SCT050
     FM271600 20010KT P6SM FEW050
     FM280200 VRB05KT P6SM FEW050
     FM280800 02006KT P6SM FEW050=



000
FTUS41 KOKX 271331 AAA
TAFEWR
TAF AMD
KEWR 271331Z 2714/2818 03008KT P6SM SCT025 BKN035
     FM271500 05008KT P6SM SCT035 SCT050
     FM271900 15008KT P6SM FEW050
     FM280200 VRB05KT P6SM FEW050
     FM280800 03006KT P6SM FEW050
     FM281300 08008KT P6SM SCT050=



000
FTUS41 KOKX 271331 AAA
TAFTEB
TAF AMD
KTEB 271331Z 2714/2812 02005KT P6SM SCT025 BKN035
     FM271500 02005KT P6SM SCT035 SCT050
     FM272000 17007KT P6SM FEW050
     FM280200 VRB05KT P6SM FEW050
     FM280800 03006KT P6SM FEW050=



000
FTUS41 KOKX 271331 AAA
TAFJFK
TAF AMD
KJFK 271331Z 2714/2818 03008KT P6SM FEW015 BKN040
     FM271500 04008KT P6SM FEW035 SCT050
     FM271700 17010KT P6SM FEW050
     FM280200 VRB05KT P6SM FEW050
     FM280900 03006KT P6SM FEW050
     FM281300 08009KT P6SM SCT050=



000
FTUS41 KOKX 271331 AAA
TAFSWF
TAF AMD
KSWF 271331Z 2714/2818 VRB04KT P6SM BKN015 BKN035
     FM271430 04005KT P6SM FEW050
     FM271800 28008KT P6SM FEW050
     FM280200 VRB04KT P6SM FEW050
     FM281500 05006KT P6SM SCT050
      AMD NOT SKED=



000
FTUS41 KOKX 271331 AAA
TAFBDR
TAF AMD
KBDR 271331Z 2714/2812 03008KT P6SM FEW035 SCT050
     FM271600 20010KT P6SM FEW050
     FM280200 VRB05KT P6SM FEW050
     FM280800 02006KT P6SM FEW050=



000
FTUS41 KOKX 271331 AAA
TAFGON
TAF AMD
KGON 271331Z 2714/2812 32007KT P6SM SKC
     FM271600 20009KT P6SM FEW050
     FM280200 VRB05KT P6SM FEW050
     FM280800 01006KT P6SM FEW050=



000
FTUS41 KOKX 271331 AAA
TAFLGA
TAF AMD
KLGA 271331Z 2714/2812 05008KT P6SM FEW017 BKN035
     FM271500 05008KT P6SM FEW035 SCT050
     FM271900 18008KT P6SM FEW050
     FM280200 VRB05KT P6SM FEW050
     FM280900 02006KT P6SM FEW050=



000
FTUS41 KOKX 271331 AAA
TAFISP
TAF AMD
KISP 271331Z 2714/2812 03008KT P6SM FEW035 SCT050
     FM271900 18010KT P6SM FEW050
     FM280200 VRB05KT P6SM FEW050
     FM280800 02006KT P6SM FEW050=



000
FTUS41 KOKX 271138 CCA
TAFISP
TAF COR
KISP 271138Z 2712/2812 01007KT P6SM FEW015 BKN040
     FM271400 03008KT P6SM FEW035 SCT050
     FM271900 18010KT P6SM FEW050
     FM280200 VRB05KT P6SM FEW050
     FM280800 02006KT P6SM FEW050=



000
FTUS41 KOKX 271134 CCA
TAFJFK
TAF COR
KJFK 271134Z 2712/2818 03008KT P6SM FEW015 BKN040
     FM271400 04008KT P6SM FEW035 SCT050
     FM271700 17010KT P6SM FEW050
     FM280200 VRB05KT P6SM FEW050
     FM280900 03006KT P6SM FEW050
     FM281300 08009KT P6SM SCT050=



000
FTUS41 KOKX 271131
TAFTEB
TAF
KTEB 271131Z 2712/2812 02005KT P6SM SCT025 BKN035
     FM271400 02005KT P6SM SCT035 SCT050
     FM272000 17007KT P6SM FEW050
     FM280200 VRB05KT P6SM FEW050
     FM280800 03006KT P6SM FEW050=



000
FTUS41 KOKX 271131
TAFBDR
TAF
KBDR 271131Z 2712/2812 02008KT P6SM SCT020 BKN035
     FM271300 03008KT P6SM FEW035 SCT050
     FM271600 20010KT P6SM FEW050
     FM280200 VRB05KT P6SM FEW050
     FM280800 02006KT P6SM FEW050=



000
FTUS41 KOKX 271131
TAFGON
TAF
KGON 271131Z 2712/2812 VRB03KT P6SM FEW015 BKN045
     FM271300 02007KT P6SM FEW050
     FM271600 20009KT P6SM FEW050
     FM280200 VRB05KT P6SM FEW050
     FM280800 01006KT P6SM FEW050=



000
FTUS41 KOKX 271131
TAFISP
TAF
KISP 271131Z 2712/2812 01007KT P6SM FEW015 BKN035
     FM271400 03008KT P6SM FEW035 SCT050
     FM271900 18010KT P6SM FEW050
     FM280200 VRB05KT P6SM FEW050
     FM280800 02006KT P6SM FEW050=



000
FTUS41 KOKX 271131
TAFJFK
TAF
KJFK 271131Z 2712/2818 03008KT P6SM FEW015 BKN035
     FM271400 04008KT P6SM FEW035 SCT050
     FM271700 17010KT P6SM FEW050
     FM280200 VRB05KT P6SM FEW050
     FM280900 03006KT P6SM FEW050
     FM281300 08009KT P6SM SCT050=



000
FTUS41 KOKX 271131
TAFEWR
TAF
KEWR 271131Z 2712/2818 03008KT P6SM SCT025 BKN035
     FM271400 05008KT P6SM SCT035 SCT050
     FM271900 15008KT P6SM FEW050
     FM280200 VRB05KT P6SM FEW050
     FM280800 03006KT P6SM FEW050
     FM281300 08008KT P6SM SCT050=



000
FTUS41 KOKX 271131
TAFSWF
TAF
KSWF 271131Z 2712/2818 VRB03KT P6SM BKN015 BKN035
     FM271300 VRB04KT P6SM SCT015 BKN035
     FM271400 04005KT P6SM FEW050
     FM271800 28008KT P6SM FEW050
     FM280200 VRB04KT P6SM FEW050
     FM281500 05006KT P6SM SCT050
      AMD NOT SKED=



000
FTUS41 KOKX 271131
TAFLGA
TAF
KLGA 271131Z 2712/2812 02008KT P6SM FEW017 BKN035
     FM271400 05008KT P6SM FEW035 SCT050
     FM271900 18008KT P6SM FEW050
     FM280200 VRB05KT P6SM FEW050
     FM280900 02006KT P6SM FEW050=



000
FTUS41 KOKX 271020 AAB
TAFGON
TAF AMD
KGON 271020Z 2710/2806 VRB05KT P6SM FEW015 BKN045
     FM271300 02007KT P6SM FEW050
     FM271600 20009KT P6SM FEW050
     FM280200 VRB05KT P6SM FEW050=



000
FTUS41 KOKX 271016 AAC
TAFLGA
TAF AMD
KLGA 271016Z 2710/2806 02008KT P6SM FEW017 BKN035
     FM271400 05008KT P6SM FEW035 SCT050
     FM271900 18008KT P6SM SCT050
     FM280200 VRB05KT P6SM FEW050=



000
FTUS41 KOKX 270840 AAA
TAFEWR
TAF AMD
KEWR 270840Z 2709/2812 02008KT P6SM FEW020 BKN035
     FM271400 04008KT P6SM SCT035 SCT050
     FM271900 15008KT P6SM FEW050
     FM280200 VRB05KT P6SM FEW050
     FM280800 03008KT P6SM SCT050=



000
FTUS41 KOKX 270840 AAA
TAFTEB
TAF AMD
KTEB 270840Z 2709/2806 02005KT P6SM FEW020 BKN035
     FM271400 02005KT P6SM SCT035 SCT050
     FM272000 17007KT P6SM FEW050
     FM280200 VRB05KT P6SM FEW050=



000
FTUS41 KOKX 270840 AAA
TAFGON
TAF AMD
KGON 270840Z 2709/2806 34007KT P6SM FEW015 BKN045
     FM271300 20009KT P6SM FEW050
     FM280200 VRB05KT P6SM FEW050=



000
FTUS41 KOKX 270840 AAA
TAFISP
TAF AMD
KISP 270840Z 2709/2806 01007KT P6SM FEW015 BKN035
     FM271400 03008KT P6SM FEW035 SCT050
     FM271800 18010KT P6SM FEW050
     FM280200 VRB05KT P6SM FEW050=



000
FTUS41 KOKX 270840 AAA
TAFJFK
TAF AMD
KJFK 270840Z 2709/2812 03008KT P6SM FEW015 BKN035
     FM271400 04008KT P6SM FEW035 SCT050
     FM271700 17010KT P6SM FEW050
     FM280200 VRB05KT P6SM FEW050
     FM280900 03008KT P6SM SCT050=



000
FTUS41 KOKX 270840 AAA
TAFBDR
TAF AMD
KBDR 270840Z 2709/2806 02008KT P6SM SCT020 BKN035
     FM271300 03008KT P6SM FEW035 SCT050
     FM271600 20010KT P6SM FEW050
     FM280200 VRB05KT P6SM FEW050=



000
FTUS41 KOKX 270840 AAA
TAFSWF
TAF AMD
KSWF 270840Z 2709/2812 05005KT P6SM SCT008 OVC012
      TEMPO 2709/2710 BKN008
     FM271100 02004KT P6SM FEW012 BKN035
     FM271400 34005KT P6SM FEW050
     FM271800 28008KT P6SM FEW050
     FM280200 VRB03KT P6SM SKC
     FM280700 02007KT P6SM FEW050
      AMD NOT SKED=



000
FTUS41 KOKX 270840 AAB
TAFLGA
TAF AMD
KLGA 270840Z 2709/2806 02008KT P6SM FEW017 BKN035
     FM271400 05008KT P6SM FEW035 SCT050
     FM280200 VRB05KT P6SM FEW050=



000
FTUS41 KOKX 270840 AAA
TAFTEB
TAF AMD
KTEB 270840Z 2709/2806 02005KT P6SM FEW020 BKN035
     FM271400 02005KT P6SM SCT035 SCT050
     FM272000 17007KT P6SM FEW050
     FM280200 VRB05KT P6SM FEW050=



000
FTUS41 KOKX 270840 AAA
TAFSWF
TAF AMD
KSWF 270840Z 2709/2812 05005KT P6SM SCT008 OVC012
      TEMPO 2709/2710 BKN008
     FM271100 02004KT P6SM FEW012 BKN035
     FM271400 34005KT P6SM FEW050
     FM271800 28008KT P6SM FEW050
     FM280200 VRB03KT P6SM SKC
     FM280700 02007KT P6SM FEW050
      AMD NOT SKED=



000
FTUS41 KOKX 270840 AAA
TAFISP
TAF AMD
KISP 270840Z 2709/2806 01007KT P6SM FEW015 BKN035
     FM271400 03008KT P6SM FEW035 SCT050
     FM271800 18010KT P6SM FEW050
     FM280200 VRB05KT P6SM FEW050=



000
FTUS41 KOKX 270840 AAA
TAFGON
TAF AMD
KGON 270840Z 2709/2806 34007KT P6SM FEW015 BKN045
     FM271300 20009KT P6SM FEW050
     FM280200 VRB05KT P6SM FEW050=



000
FTUS41 KOKX 270840 AAA
TAFBDR
TAF AMD
KBDR 270840Z 2709/2806 02008KT P6SM SCT020 BKN035
     FM271300 03008KT P6SM FEW035 SCT050
     FM271600 20010KT P6SM FEW050
     FM280200 VRB05KT P6SM FEW050=



000
FTUS41 KOKX 270840 AAA
TAFJFK
TAF AMD
KJFK 270840Z 2709/2812 03008KT P6SM FEW015 BKN035
     FM271400 04008KT P6SM FEW035 SCT050
     FM271700 17010KT P6SM FEW050
     FM280200 VRB05KT P6SM FEW050
     FM280900 03008KT P6SM SCT050=



000
FTUS41 KOKX 270840 AAB
TAFLGA
TAF AMD
KLGA 270840Z 2709/2806 02008KT P6SM FEW017 BKN035
     FM271400 05008KT P6SM FEW035 SCT050
     FM280200 VRB05KT P6SM FEW050=



000
FTUS41 KOKX 270840 AAA
TAFEWR
TAF AMD
KEWR 270840Z 2709/2812 02008KT P6SM FEW020 BKN035
     FM271400 04008KT P6SM SCT035 SCT050
     FM271900 15008KT P6SM FEW050
     FM280200 VRB05KT P6SM FEW050
     FM280800 03008KT P6SM SCT050=



000
FTUS41 KOKX 270659 AAA
TAFLGA
TAF AMD
KLGA 270659Z 2707/2806 06011KT P6SM BKN017 OVC035
     FM270800 02008KT P6SM FEW017 BKN035
     FM271500 05008KT P6SM SCT050
     FM280200 VRB05KT P6SM FEW050=



000
FTUS41 KOKX 270539
TAFSWF
TAF
KSWF 270539Z 2706/2812 05005KT P6SM OVC012
     FM271000 02004KT P6SM FEW012 BKN035
     FM271400 34005KT P6SM FEW050
     FM271800 28008KT P6SM FEW050
     FM280200 VRB03KT P6SM SKC
     FM280700 02007KT P6SM FEW050
      AMD NOT SKED=



000
FTUS41 KOKX 270539
TAFLGA
TAF
KLGA 270539Z 2706/2806 06011KT P6SM SCT017 BKN035
      TEMPO 2706/2707 BKN030
     FM270700 02008KT P6SM FEW015 BKN035
     FM271500 05008KT P6SM SCT050
     FM280200 VRB05KT P6SM FEW050=



000
FTUS41 KOKX 270539
TAFBDR
TAF
KBDR 270539Z 2706/2806 05005KT P6SM OVC022
     FM270800 02008KT P6SM SCT020 BKN040
     FM271500 03008KT P6SM FEW040
     FM271600 20010KT P6SM FEW050
     FM280200 VRB05KT P6SM FEW050=



000
FTUS41 KOKX 270539
TAFEWR
TAF
KEWR 270539Z 2706/2812 03011KT P6SM BKN017 OVC027
     FM270700 02008KT P6SM FEW020 BKN035
      TEMPO 2707/2708 BKN020
     FM271500 04008KT P6SM SCT050
     FM271900 15008KT P6SM FEW050
     FM280200 VRB05KT P6SM FEW050
     FM280800 03008KT P6SM SCT050=



000
FTUS41 KOKX 270539
TAFGON
TAF
KGON 270539Z 2706/2806 35003KT P6SM OVC012
     FM270800 34007KT P6SM FEW015 BKN045
     FM271600 20009KT P6SM FEW050
     FM280200 VRB05KT P6SM FEW050=



000
FTUS41 KOKX 270539
TAFISP
TAF
KISP 270539Z 2706/2806 04008KT 6SM BR FEW016 OVC035
     FM270800 01007KT P6SM FEW015 BKN035
     FM271500 03008KT P6SM SCT050
     FM271800 18010KT P6SM FEW050
     FM280200 VRB05KT P6SM FEW050=



000
FTUS41 KOKX 270539
TAFTEB
TAF
KTEB 270539Z 2706/2806 05004KT P6SM FEW015 OVC030
     FM270800 02005KT P6SM FEW020 BKN040
     FM271500 02005KT P6SM SCT050
     FM272000 17007KT P6SM FEW050
     FM280200 VRB05KT P6SM FEW050=



000
FTUS41 KOKX 270539
TAFJFK
TAF
KJFK 270539Z 2706/2812 05009KT P6SM SCT015 OVC035
      TEMPO 2706/2707 BKN030
     FM270700 02008KT P6SM FEW015 BKN035
     FM271500 04008KT P6SM SCT050
     FM271700 17010KT P6SM FEW050
     FM280200 VRB05KT P6SM FEW050
     FM280900 03008KT P6SM SCT050=



000
FTUS41 KOKX 270241 AAA
TAFEWR
TAF AMD
KEWR 270241Z 2703/2806 08008KT P6SM OVC011
     FM270400 05008KT P6SM BKN015
     FM270700 02008KT P6SM FEW015 BKN035
     FM271500 04008KT P6SM SCT050
     FM271800 18008KT P6SM FEW050
     FM280100 22005KT P6SM FEW050=



000
FTUS41 KOKX 270241 AAC
TAFGON
TAF AMD
KGON 270241Z 2703/2724 03009KT P6SM OVC012
     FM270700 34007KT P6SM FEW015 BKN045
     FM271700 20009KT P6SM FEW050=



000
FTUS41 KOKX 270241 AAC
TAFBDR
TAF AMD
KBDR 270241Z 2703/2724 04007KT P6SM FEW018 OVC035
      TEMPO 2703/2706 BKN030
     FM271500 03008KT P6SM FEW040
     FM271700 21010KT P6SM FEW050=



000
FTUS41 KOKX 270241 AAA
TAFJFK
TAF AMD
KJFK 270241Z 2703/2806 06012KT P6SM OVC011
     FM270400 03010KT P6SM BKN015
     FM270700 02008KT P6SM FEW015 BKN035
     FM271500 04008KT P6SM SCT050
     FM271700 17010KT P6SM FEW050
     FM280300 21007KT P6SM FEW050=



000
FTUS41 KOKX 270241 AAC
TAFBDR
TAF AMD
KBDR 270241Z 2703/2724 04007KT P6SM FEW018 OVC035
      TEMPO 2703/2706 BKN030
     FM271500 03008KT P6SM FEW040
     FM271700 21010KT P6SM FEW050=



000
FTUS41 KOKX 270241 AAA
TAFJFK
TAF AMD
KJFK 270241Z 2703/2806 06012KT P6SM OVC011
     FM270400 03010KT P6SM BKN015
     FM270700 02008KT P6SM FEW015 BKN035
     FM271500 04008KT P6SM SCT050
     FM271700 17010KT P6SM FEW050
     FM280300 21007KT P6SM FEW050=



000
FTUS41 KOKX 270241 AAA
TAFEWR
TAF AMD
KEWR 270241Z 2703/2806 08008KT P6SM OVC011
     FM270400 05008KT P6SM BKN015
     FM270700 02008KT P6SM FEW015 BKN035
     FM271500 04008KT P6SM SCT050
     FM271800 18008KT P6SM FEW050
     FM280100 22005KT P6SM FEW050=



000
FTUS41 KOKX 270241 AAC
TAFGON
TAF AMD
KGON 270241Z 2703/2724 03009KT P6SM OVC012
     FM270700 34007KT P6SM FEW015 BKN045
     FM271700 20009KT P6SM FEW050=



000
FTUS41 KOKX 270148 AAC
TAFSWF
TAF AMD
KSWF 270148Z 2702/2806 06006KT P6SM OVC012
     FM270500 06004KT P6SM BKN020
     FM271000 02004KT P6SM SCT035
     FM271400 34005KT P6SM FEW050
     FM271800 28008KT P6SM FEW050
     FM280200 VRB03KT P6SM SKC
      AMD NOT SKED=



000
FTUS41 KOKX 270148 AAC
TAFISP
TAF AMD
KISP 270148Z 2702/2724 05010KT P6SM OVC011
     FM270800 02007KT P6SM FEW015 BKN035
     FM271500 03008KT P6SM SCT050
     FM271800 18010KT P6SM FEW050=



000
FTUS41 KOKX 270148 AAA
TAFTEB
TAF AMD
KTEB 270148Z 2702/2724 08008KT P6SM OVC011
     FM270400 05007KT P6SM BKN015
     FM270600 06007KT P6SM SCT020 BKN035
     FM270800 02005KT P6SM BKN040
     FM271500 02005KT P6SM SCT050
     FM271700 20007KT P6SM FEW050=



000
FTUS41 KOKX 270148 AAA
TAFLGA
TAF AMD
KLGA 270148Z 2702/2724 07012KT P6SM OVC011
     FM270400 04010KT P6SM BKN015
     FM270700 02008KT P6SM FEW015 BKN035
     FM271500 05008KT P6SM SCT050
     FM272000 18010KT P6SM FEW050=



000
FTUS41 KOKX 270015 RRA
TAFGON
TAF
KGON 270015Z 2700/2724 03009KT P6SM OVC012
      TEMPO 2700/2704 BKN008
     FM270700 34007KT P6SM FEW015 BKN045
     FM271700 20009KT P6SM FEW050=



000
FTUS41 KOKX 270015 RRA
TAFSWF
TAF
KSWF 270015Z 2700/2806 06009KT 3SM BR OVC008
     FM270200 06006KT 5SM BR OVC015
     FM270500 06004KT P6SM BKN020
     FM271000 02004KT P6SM SCT035
     FM271400 34005KT P6SM FEW050
     FM271800 28008KT P6SM FEW050
     FM280200 VRB03KT P6SM SKC
      AMD NOT SKED=



000
FTUS41 KOKX 270001 RRA
TAFISP
TAF
KISP 270001Z 2700/2724 05008KT P6SM OVC007
     FM270400 04010KT P6SM FEW007 BKN015
     FM270800 02007KT P6SM FEW015 BKN035
     FM271500 03008KT P6SM SCT050
     FM271800 18010KT P6SM FEW050=



000
FTUS41 KOKX 270001 RRA
TAFBDR
TAF
KBDR 270001Z 2700/2724 04011KT P6SM OVC015
     FM270700 02007KT P6SM FEW015 BKN045
     FM271500 03008KT P6SM FEW040
     FM271700 21010KT P6SM FEW050=



000
FTUS41 KOKX 270001 RRA
TAFBDR
TAF
KBDR 270001Z 2700/2724 04011KT P6SM OVC015
     FM270700 02007KT P6SM FEW015 BKN045
     FM271500 03008KT P6SM FEW040
     FM271700 21010KT P6SM FEW050=



000
FTUS41 KOKX 270001 RRA
TAFISP
TAF
KISP 270001Z 2700/2724 05008KT P6SM OVC007
     FM270400 04010KT P6SM FEW007 BKN015
     FM270800 02007KT P6SM FEW015 BKN035
     FM271500 03008KT P6SM SCT050
     FM271800 18010KT P6SM FEW050=



000
FTUS41 KOKX 262338
TAFTEB
TAF
KTEB 262338Z 2700/2724 08008KT P6SM OVC009
     FM270400 05007KT P6SM FEW009 BKN015
     FM270600 06007KT P6SM SCT020 BKN035
     FM270800 02005KT P6SM BKN040
     FM271500 02005KT P6SM SCT050
     FM271700 20007KT P6SM FEW050=



000
FTUS41 KOKX 262338
TAFJFK
TAF
KJFK 262338Z 2700/2806 06012KT P6SM OVC009
     FM270400 03010KT P6SM FEW009 BKN015
     FM270700 02008KT P6SM FEW015 BKN035
     FM271500 04008KT P6SM SCT050
     FM271700 17010KT P6SM FEW050
     FM280300 21007KT P6SM FEW050=



000
FTUS41 KOKX 262338
TAFEWR
TAF
KEWR 262338Z 2700/2806 08008KT P6SM BKN010
      TEMPO 2700/2702 BKN009
     FM270400 06008KT P6SM BKN015
     FM270700 02008KT P6SM FEW015 BKN035
     FM271500 04008KT P6SM SCT050
     FM271800 18008KT P6SM FEW050
     FM280100 22005KT P6SM FEW050=



000
FTUS41 KOKX 262338
TAFLGA
TAF
KLGA 262338Z 2700/2724 06012KT P6SM OVC009
     FM270400 04010KT P6SM FEW009 BKN015
     FM270700 02008KT P6SM FEW015 BKN035
     FM271500 05008KT P6SM SCT050
     FM272000 18010KT P6SM FEW050=



000
FTUS41 KOKX 262238 AAB
TAFSWF
TAF AMD
KSWF 262238Z 2623/2724 VRB05KT 3SM BR OVC005
      TEMPO 2623/2701 2SM BR OVC004
     FM270500 06005KT 5SM BR OVC015
     FM270800 36005KT P6SM OVC020
     FM271100 02005KT P6SM BKN035
     FM271400 28005KT P6SM FEW050
      AMD NOT SKED=



000
FTUS41 KOKX 262224 AAB
TAFGON
TAF AMD
KGON 262224Z 2622/2718 05009KT P6SM OVC010
      TEMPO 2700/2704 BKN008
     FM270700 36005KT P6SM SCT015 BKN040
     FM271200 01007KT P6SM BKN045 BKN250
     FM271500 34008KT P6SM SCT250=



000
FTUS41 KOKX 262218 AAB
TAFBDR
TAF AMD
KBDR 262218Z 2622/2718 04011KT P6SM OVC015
     FM270100 03008KT P6SM BKN007 OVC015
     FM270600 02006KT P6SM SCT015 BKN040
     FM271200 01006KT P6SM BKN045 BKN250
     FM271500 03007KT P6SM SCT250=



000
FTUS41 KOKX 262218 AAB
TAFBDR
TAF AMD
KBDR 262218Z 2622/2718 04011KT P6SM OVC015
     FM270100 03008KT P6SM BKN007 OVC015
     FM270600 02006KT P6SM SCT015 BKN040
     FM271200 01006KT P6SM BKN045 BKN250
     FM271500 03007KT P6SM SCT250=



000
FTUS41 KOKX 262216 AAB
TAFISP
TAF AMD
KISP 262216Z 2622/2718 04010KT P6SM OVC008
     FM270200 04008KT P6SM BKN005
     FM270700 02006KT P6SM SCT010 BKN035
     FM271200 01006KT P6SM BKN045 BKN250=



000
FTUS41 KOKX 262216 AAB
TAFISP
TAF AMD
KISP 262216Z 2622/2718 04010KT P6SM OVC008
     FM270200 04008KT P6SM BKN005
     FM270700 02006KT P6SM SCT010 BKN035
     FM271200 01006KT P6SM BKN045 BKN250=



000
FTUS41 KOKX 262207 AAB
TAFTEB
TAF AMD
KTEB 262207Z 2622/2718 08008KT P6SM OVC009
     FM270700 03003KT P6SM SCT012 BKN035
     FM271500 36005KT P6SM FEW050 FEW250
     FM271700 27004KT P6SM FEW200 FEW250=



000
FTUS41 KOKX 262155 AAC
TAFEWR
TAF AMD
KEWR 262155Z 2622/2724 08010KT P6SM BKN010
      TEMPO 2622/2702 BKN008
     FM270800 03008KT P6SM SCT015 BKN035
     FM271500 35005KT P6SM FEW050 FEW250
     FM271700 27004KT P6SM FEW200 FEW250
     FM272000 21006KT P6SM FEW250=



000
FTUS41 KOKX 262155 AAC
TAFEWR
TAF AMD
KEWR 262155Z 2622/2724 08010KT P6SM BKN010
      TEMPO 2622/2702 BKN008
     FM270800 03008KT P6SM SCT015 BKN035
     FM271500 35005KT P6SM FEW050 FEW250
     FM271700 27004KT P6SM FEW200 FEW250
     FM272000 21006KT P6SM FEW250=



000
FTUS41 KOKX 262148 AAC
TAFLGA
TAF AMD
KLGA 262148Z 2622/2718 06012KT P6SM BKN007
     FM270500 05008KT P6SM BKN007
     FM270900 03009KT P6SM BKN035 BKN040=



000
FTUS41 KOKX 262141 AAB
TAFJFK
TAF AMD
KJFK 262141Z 2622/2724 06012KT P6SM SCT008 BKN012
     FM262300 06014KT P6SM BKN008 OVC015
     FM270600 03009KT P6SM BKN035 BKN040
     FM271500 01006KT P6SM SCT050 SCT250
     FM271700 24005KT P6SM FEW250=



000
FTUS41 KOKX 261933 AAA
TAFISP
TAF AMD
KISP 261933Z 2620/2718 03008KT 6SM SHRA BKN008
     FM262200 04010KT 5SM SHRA BKN010 OVC015
     FM262300 04008KT P6SM BKN005 OVC015
     FM270900 02006KT P6SM BKN020 BKN040
     FM271200 01006KT P6SM BKN045 BKN250=



000
FTUS41 KOKX 261933 AAA
TAFTEB
TAF AMD
KTEB 261933Z 2620/2718 08010KT P6SM SHRA SCT015 BKN040
      TEMPO 2620/2621 4SM TSRA BKN020CB
     FM262100 03014KT P6SM VCSH BKN050
     FM270000 04012KT P6SM BKN015
     FM270500 02005KT P6SM SCT030 BKN035
     FM271500 36005KT P6SM FEW050 FEW250
     FM271700 27004KT P6SM FEW200 FEW250=



000
FTUS41 KOKX 261933 AAA
TAFJFK
TAF AMD
KJFK 261933Z 2620/2724 04012KT 6SM SHRA SCT020 BKN045
      TEMPO 2620/2621 3SM TSRA BKN020CB
     FM262200 03014KT P6SM VCSH BKN008 BKN025
     FM270000 05014KT P6SM BKN008 OVC015
     FM270600 03009KT P6SM BKN035 BKN040
     FM271500 01006KT P6SM SCT050 SCT250
     FM271700 24005KT P6SM FEW250=



000
FTUS41 KOKX 261933 AAA
TAFBDR
TAF AMD
KBDR 261933Z 2620/2718 05008KT 6SM SHRA OVC010
     FM262200 04012KT 5SM SHRA BKN010 OVC015
     FM262300 03008KT P6SM BKN005 OVC015
     FM270900 02006KT P6SM BKN020 BKN040
     FM271200 01006KT P6SM BKN045 BKN250
     FM271500 03007KT P6SM SCT250=



000
FTUS41 KOKX 261933 AAA
TAFGON
TAF AMD
KGON 261933Z 2620/2718 05009KT 6SM SHRA OVC010
     FM262200 04012KT 5SM SHRA BKN007 OVC010
     FM262300 03008KT P6SM BKN005 OVC015
     FM270900 02006KT P6SM BKN020 BKN040
     FM271200 01006KT P6SM BKN045 BKN250
     FM271500 34007KT P6SM SCT250=



000
FTUS41 KOKX 261933 AAA
TAFSWF
TAF AMD
KSWF 261933Z 2620/2724 02005KT P6SM BKN004 OVC008
      TEMPO 2620/2621 4SM SHRA OVC004
     FM262100 02010KT P6SM VCSH BKN008 BKN015
     FM270000 03009KT P6SM OVC015
     FM270600 03004KT P6SM BKN030
     FM270900 VRB03KT P6SM FEW030 SCT250
     FM271400 28005KT P6SM BKN250
      AMD NOT SKED=



000
FTUS41 KOKX 261933 AAB
TAFLGA
TAF AMD
KLGA 261933Z 2620/2718 05012KT P6SM SHRA SCT005 BKN040
      TEMPO 2620/2621 3SM TSRA BKN005CB
     FM262200 05014KT P6SM VCSH BKN008 BKN025
     FM270000 05014KT P6SM BKN008 OVC015
     FM270900 03009KT P6SM BKN035 BKN040=



000
FTUS41 KOKX 261933 AAB
TAFEWR
TAF AMD
KEWR 261933Z 2620/2724 03010KT P6SM SHRA SCT045 BKN110
      TEMPO 2620/2621 4SM TSRA BKN035CB
     FM262100 02014KT P6SM VCSH BKN050
     FM270000 04012KT P6SM BKN015
     FM270500 03009KT P6SM SCT030 BKN035
     FM271500 35005KT P6SM FEW050 FEW250
     FM271700 27004KT P6SM FEW200 FEW250
     FM272000 21006KT P6SM FEW250=



000
FTUS41 KOKX 261902 AAA
TAFEWR
TAF AMD
KEWR 261902Z 2619/2724 03010KT P6SM SHRA SCT045 BKN110
      TEMPO 2619/2621 4SM TSRA BKN035CB
     FM262100 02014G22KT P6SM VCSH BKN050
     FM270000 04012KT P6SM BKN015
     FM270500 03009KT P6SM SCT030 BKN035
     FM271500 35005KT P6SM FEW050 FEW250
     FM271700 27004KT P6SM FEW200 FEW250
     FM272000 21006KT P6SM FEW250=



000
FTUS41 KOKX 261900 AAA
TAFLGA
TAF AMD
KLGA 261900Z 2619/2718 05012KT P6SM SHRA SCT005 BKN040
      TEMPO 2619/2622 3SM TSRA BKN005CB
     FM262200 05014G23KT P6SM VCSH BKN008 BKN025
     FM270000 05014G22KT P6SM BKN008 OVC015
     FM270900 03009KT P6SM BKN035 BKN040=



000
FTUS41 KOKX 261734
TAFEWR
TAF
KEWR 261734Z 2618/2724 28010KT P6SM SCT060 BKN150
     FM261900 30016G27KT P6SM SHRA SCT045 BKN110
      TEMPO 2619/2621 4SM TSRA BKN035CB
     FM262100 02014G22KT P6SM VCSH BKN050
     FM270000 04012KT P6SM BKN015
     FM270500 03009KT P6SM SCT030 BKN035
     FM271500 35005KT P6SM FEW050 FEW250
     FM271700 27004KT P6SM FEW200 FEW250
     FM272000 21006KT P6SM FEW250=



000
FTUS41 KOKX 261734
TAFISP
TAF
KISP 261734Z 2618/2718 03008KT 6SM SHRA FEW015 OVC030
      TEMPO 2618/2622 BKN015
     FM262200 04010KT 5SM SHRA BKN010 OVC015
     FM262300 04008KT P6SM BKN005 OVC015
     FM270900 02006KT P6SM BKN020 BKN040
     FM271200 01006KT P6SM BKN045 BKN250=



000
FTUS41 KOKX 261734
TAFSWF
TAF
KSWF 261734Z 2618/2724 VRB03KT 3SM SHRA OVC005
     FM261900 02005KT P6SM BKN005 OVC008
      TEMPO 2619/2621 4SM SHRA OVC003
     FM262100 02010KT P6SM VCSH BKN008 BKN015
     FM270000 03009KT P6SM OVC015
     FM270600 03004KT P6SM BKN030
     FM270900 VRB03KT P6SM FEW030 SCT250
     FM271400 28005KT P6SM BKN250
      AMD NOT SKED=



000
FTUS41 KOKX 261734
TAFLGA
TAF
KLGA 261734Z 2618/2718 06012KT 4SM BR OVC005
     FM261900 06012KT 6SM SHRA BKN005
      TEMPO 2619/2621 3SM TSRA BKN005CB
     FM262200 05014G23KT P6SM VCSH BKN008 BKN025
     FM270000 05014G22KT P6SM BKN008 OVC015
     FM270900 03009KT P6SM BKN035 BKN040=



000
FTUS41 KOKX 261734
TAFBDR
TAF
KBDR 261734Z 2618/2718 07008KT 6SM SHRA BKN008
     FM262200 04012KT 5SM SHRA BKN010 OVC015
     FM262300 03008KT P6SM BKN005 OVC015
     FM270900 02006KT P6SM BKN020 BKN040
     FM271200 01006KT P6SM BKN045 BKN250
     FM271500 03007KT P6SM SCT250=



000
FTUS41 KOKX 261734
TAFGON
TAF
KGON 261734Z 2618/2718 05009KT 6SM SHRA OVC010
     FM262200 04012KT 5SM SHRA BKN007 OVC010
     FM262300 03008KT P6SM BKN005 OVC015
     FM270900 02006KT P6SM BKN020 BKN040
     FM271200 01006KT P6SM BKN045 BKN250
     FM271500 34007KT P6SM SCT250=



000
FTUS41 KOKX 261734
TAFTEB
TAF
KTEB 261734Z 2618/2718 09006KT 6SM BR BKN008
     FM261900 33010KT P6SM SHRA SCT015 BKN030
      TEMPO 2619/2621 4SM TSRA BKN020CB
     FM262100 01014G22KT P6SM VCSH BKN050
     FM270000 04012KT P6SM BKN015
     FM270500 02005KT P6SM SCT030 BKN035
     FM271500 36005KT P6SM FEW050 FEW250
     FM271700 27004KT P6SM FEW200 FEW250=



000
FTUS41 KOKX 261734
TAFJFK
TAF
KJFK 261734Z 2618/2724 02009KT P6SM SCT020 OVC080
     FM261900 32012KT 6SM SHRA SCT020 BKN045
      TEMPO 2619/2621 3SM TSRA BKN020CB
     FM262200 03014G23KT P6SM VCSH BKN008 BKN025
     FM270000 05014G22KT P6SM BKN008 OVC015
     FM270600 03009KT P6SM BKN035 BKN040
     FM271500 01006KT P6SM SCT050 SCT250
     FM271700 24005KT P6SM FEW250=



000
FTUS41 KOKX 261532 AAB
TAFJFK
TAF AMD
KJFK 261532Z 2616/2718 30007KT P6SM BKN040 BKN090
      TEMPO 2616/2617 6SM -RA BKN025
     FM261700 27008KT 5SM SHRA BR SCT020 OVC035
      TEMPO 2617/2619 2SM TSRA OVC015CB
     FM262100 32013KT P6SM OVC025
     FM270100 02011KT P6SM SCT025 OVC040
     FM270800 02007KT P6SM SCT250
     FM271600 18010KT P6SM FEW250=



000
FTUS41 KOKX 261532 AAB
TAFBDR
TAF AMD
KBDR 261532Z 2616/2712 10008KT P6SM SCT025 BKN050
     FM261700 06010KT 5SM -SHRA BR OVC025
      TEMPO 2617/2620 3SM SHRA BR BKN015
     FM262200 05013KT P6SM SCT025 OVC035
     FM270200 03006KT P6SM SCT020 OVC035
     FM271000 26005KT P6SM SCT250=



000
FTUS41 KOKX 261532 AAB
TAFEWR
TAF AMD
KEWR 261532Z 2616/2718 03005KT P6SM FEW010 BKN050 BKN090
      TEMPO 2616/2617 6SM -RA BKN025
     FM261700 28015KT 5SM SHRA BR OVC035
      TEMPO 2617/2619 1 1/2SM TSRA OVC010CB
     FM262100 33016KT P6SM OVC030
     FM270100 03012KT P6SM SCT025 OVC050
     FM270800 02006KT P6SM SCT250
     FM271500 34007KT P6SM SCT250=



000
FTUS41 KOKX 261532 AAB
TAFISP
TAF AMD
KISP 261532Z 2616/2712 12007KT P6SM FEW006 BKN040 BKN100
     FM261700 VRB04KT 6SM -SHRA SCT020 BKN035
      TEMPO 2617/2620 3SM SHRA BR BKN015 OVC025
     FM262100 03013KT 5SM BR OVC020
     FM270200 02008KT P6SM SCT020 OVC035
     FM271000 02006KT P6SM SCT250=



000
FTUS41 KOKX 261532 AAB
TAFSWF
TAF AMD
KSWF 261532Z 2616/2718 29005KT 3SM -SHRA BR SCT010 OVC025
      TEMPO 2616/2619 BKN010 OVC025
     FM262000 03013KT 5SM BR BKN025 OVC040
     FM262300 03008KT P6SM BKN035
     FM271400 28006KT P6SM SCT250
      AMD NOT SKED=



000
FTUS41 KOKX 261532 AAB
TAFTEB
TAF AMD
KTEB 261532Z 2616/2712 07008KT P6SM SCT015 BKN040 BKN090
      TEMPO 2616/2617 5SM -RA BKN020
     FM261700 27010KT 4SM SHRA BR OVC035
      TEMPO 2617/2619 1 1/2SM TSRA OVC010CB
     FM262100 32012KT P6SM OVC025
     FM270100 03006KT P6SM SCT025 OVC040
     FM270800 02004KT P6SM SCT250=



000
FTUS41 KOKX 261532 AAB
TAFGON
TAF AMD
KGON 261532Z 2616/2712 06013KT P6SM OVC020
      TEMPO 2616/2617 6SM -SHRA BR BKN025
     FM261700 06014KT 5SM -RA BR BKN025 OVC035
      TEMPO 2617/2621 2SM RA BR BKN010
     FM262300 02010KT P6SM OVC020
     FM270600 36005KT P6SM SCT020 OVC035=



000
FTUS41 KOKX 261532 AAB
TAFLGA
TAF AMD
KLGA 261532Z 2616/2712 09008KT P6SM FEW008 BKN050 BKN090
      TEMPO 2616/2617 6SM -RA BKN005
     FM261700 28005KT 5SM SHRA BR OVC035
      TEMPO 2617/2619 2SM TSRA OVC015CB
     FM262100 32016KT P6SM OVC025
     FM270100 03013KT P6SM SCT025 OVC040
     FM270800 04008KT P6SM SCT250=



000
FTUS41 KOKX 261532 AAB
TAFJFK
TAF AMD
KJFK 261532Z 2616/2718 30007KT P6SM BKN040 BKN090
      TEMPO 2616/2617 6SM -RA BKN025
     FM261700 27008KT 5SM SHRA BR SCT020 OVC035
      TEMPO 2617/2619 2SM TSRA OVC015CB
     FM262100 32013KT P6SM OVC025
     FM270100 02011KT P6SM SCT025 OVC040
     FM270800 02007KT P6SM SCT250
     FM271600 18010KT P6SM FEW250=



000
FTUS41 KOKX 261532 AAB
TAFLGA
TAF AMD
KLGA 261532Z 2616/2712 09008KT P6SM FEW008 BKN050 BKN090
      TEMPO 2616/2617 6SM -RA BKN005
     FM261700 28005KT 5SM SHRA BR OVC035
      TEMPO 2617/2619 2SM TSRA OVC015CB
     FM262100 32016KT P6SM OVC025
     FM270100 03013KT P6SM SCT025 OVC040
     FM270800 04008KT P6SM SCT250=



000
FTUS41 KOKX 261532 AAB
TAFBDR
TAF AMD
KBDR 261532Z 2616/2712 10008KT P6SM SCT025 BKN050
     FM261700 06010KT 5SM -SHRA BR OVC025
      TEMPO 2617/2620 3SM SHRA BR BKN015
     FM262200 05013KT P6SM SCT025 OVC035
     FM270200 03006KT P6SM SCT020 OVC035
     FM271000 26005KT P6SM SCT250=



000
FTUS41 KOKX 261532 AAB
TAFGON
TAF AMD
KGON 261532Z 2616/2712 06013KT P6SM OVC020
      TEMPO 2616/2617 6SM -SHRA BR BKN025
     FM261700 06014KT 5SM -RA BR BKN025 OVC035
      TEMPO 2617/2621 2SM RA BR BKN010
     FM262300 02010KT P6SM OVC020
     FM270600 36005KT P6SM SCT020 OVC035=



000
FTUS41 KOKX 261532 AAB
TAFEWR
TAF AMD
KEWR 261532Z 2616/2718 03005KT P6SM FEW010 BKN050 BKN090
      TEMPO 2616/2617 6SM -RA BKN025
     FM261700 28015KT 5SM SHRA BR OVC035
      TEMPO 2617/2619 1 1/2SM TSRA OVC010CB
     FM262100 33016KT P6SM OVC030
     FM270100 03012KT P6SM SCT025 OVC050
     FM270800 02006KT P6SM SCT250
     FM271500 34007KT P6SM SCT250=



000
FTUS41 KOKX 261532 AAB
TAFSWF
TAF AMD
KSWF 261532Z 2616/2718 29005KT 3SM -SHRA BR SCT010 OVC025
      TEMPO 2616/2619 BKN010 OVC025
     FM262000 03013KT 5SM BR BKN025 OVC040
     FM262300 03008KT P6SM BKN035
     FM271400 28006KT P6SM SCT250
      AMD NOT SKED=



000
FTUS41 KOKX 261532 AAB
TAFTEB
TAF AMD
KTEB 261532Z 2616/2712 07008KT P6SM SCT015 BKN040 BKN090
      TEMPO 2616/2617 5SM -RA BKN020
     FM261700 27010KT 4SM SHRA BR OVC035
      TEMPO 2617/2619 1 1/2SM TSRA OVC010CB
     FM262100 32012KT P6SM OVC025
     FM270100 03006KT P6SM SCT025 OVC040
     FM270800 02004KT P6SM SCT250=



000
FTUS41 KOKX 261532 AAB
TAFISP
TAF AMD
KISP 261532Z 2616/2712 12007KT P6SM FEW006 BKN040 BKN100
     FM261700 VRB04KT 6SM -SHRA SCT020 BKN035
      TEMPO 2617/2620 3SM SHRA BR BKN015 OVC025
     FM262100 03013KT 5SM BR OVC020
     FM270200 02008KT P6SM SCT020 OVC035
     FM271000 02006KT P6SM SCT250=



000
FTUS41 KOKX 261330 AAA
TAFLGA
TAF AMD
KLGA 261330Z 2614/2712 05008KT P6SM BKN006 BKN090
      TEMPO 2614/2615 BKN020 BKN090
     FM261500 09008KT P6SM FEW008 BKN050 BKN090
      TEMPO 2615/2617 6SM -RA BKN025
     FM261700 17005KT 5SM SHRA BR OVC035
      TEMPO 2617/2619 2SM TSRA OVC015CB
     FM262100 04016KT P6SM OVC025
     FM270100 03013KT P6SM SCT025 OVC040
     FM270800 04008KT P6SM SCT250=



000
FTUS41 KOKX 261330 AAA
TAFBDR
TAF AMD
KBDR 261330Z 2614/2712 08006KT P6SM -RA FEW009 BKN040 BKN090
     FM261500 10008KT P6SM SCT025 BKN050
     FM261700 11010KT 5SM -SHRA BR OVC025
      TEMPO 2617/2620 3SM SHRA BR BKN015
     FM262200 05013KT P6SM SCT025 OVC035
     FM270200 03006KT P6SM SCT020 OVC035
     FM271000 26005KT P6SM SCT250=



000
FTUS41 KOKX 261330 AAA
TAFISP
TAF AMD
KISP 261330Z 2614/2712 12007KT P6SM FEW006 BKN040 BKN100
     FM261700 VRB04KT 6SM -SHRA SCT020 BKN035
      TEMPO 2617/2620 3SM SHRA BR BKN015 OVC025
     FM262200 03013KT 5SM BR OVC020
     FM270200 36008KT P6SM SCT020 OVC035
     FM271000 01006KT P6SM SCT250=



000
FTUS41 KOKX 261330 AAA
TAFTEB
TAF AMD
KTEB 261330Z 2614/2712 VRB03KT 4SM BR BKN009
     FM261500 07008KT P6SM SCT015 BKN040 BKN090
      TEMPO 2615/2617 5SM -RA BKN020
     FM261700 23010KT 4SM SHRA BR OVC035
      TEMPO 2617/2619 1 1/2SM TSRA OVC010CB
     FM262100 04012KT P6SM OVC025
     FM270100 03006KT P6SM SCT025 OVC040
     FM270800 02004KT P6SM SCT250=



000
FTUS41 KOKX 261330 AAA
TAFGON
TAF AMD
KGON 261330Z 2614/2712 09013KT P6SM OVC020
      TEMPO 2614/2617 6SM -SHRA BR BKN025
     FM261700 06014KT 5SM -RA BR BKN025 OVC035
      TEMPO 2617/2621 2SM RA BR BKN010
     FM262300 02010KT P6SM OVC020
     FM270600 36005KT P6SM SCT020 OVC035=



000
FTUS41 KOKX 261330 AAA
TAFSWF
TAF AMD
KSWF 261330Z 2614/2718 12006KT 5SM -RA BR BKN005 OVC040
     FM261500 29005KT 3SM -SHRA BR SCT010 OVC025
      TEMPO 2615/2619 BKN010 OVC025
     FM262000 36013KT 5SM BR BKN025 OVC040
     FM262300 03008KT P6SM BKN035
     FM271400 28006KT P6SM SCT250
      AMD NOT SKED=



000
FTUS41 KOKX 261330 AAA
TAFEWR
TAF AMD
KEWR 261330Z 2614/2718 08005KT P6SM BKN009
      TEMPO 2614/2615 BKN020 BKN090
     FM261500 06005KT P6SM FEW010 BKN050 BKN090
      TEMPO 2615/2617 6SM -RA BKN025
     FM261700 22015KT 5SM SHRA BR OVC035
      TEMPO 2617/2619 1 1/2SM TSRA OVC010CB
     FM262100 01016KT P6SM OVC030
     FM270100 03012KT P6SM SCT025 OVC050
     FM270800 02006KT P6SM SCT250
     FM271500 34007KT P6SM SCT250=



000
FTUS41 KOKX 261330 AAA
TAFJFK
TAF AMD
KJFK 261330Z 2614/2718 09007KT P6SM FEW010 BKN040 BKN090
      TEMPO 2614/2617 6SM -RA BKN025
     FM261700 19008KT 5SM SHRA BR SCT020 OVC035
      TEMPO 2617/2619 2SM TSRA OVC015CB
     FM262100 04013KT P6SM OVC025
     FM270100 02011KT P6SM SCT025 OVC040
     FM270800 02007KT P6SM SCT250
     FM271600 18010KT P6SM FEW250=



000
FTUS41 KOKX 261330 AAA
TAFLGA
TAF AMD
KLGA 261330Z 2614/2712 05008KT P6SM BKN006 BKN090
      TEMPO 2614/2615 BKN020 BKN090
     FM261500 09008KT P6SM FEW008 BKN050 BKN090
      TEMPO 2615/2617 6SM -RA BKN025
     FM261700 17005KT 5SM SHRA BR OVC035
      TEMPO 2617/2619 2SM TSRA OVC015CB
     FM262100 04016KT P6SM OVC025
     FM270100 03013KT P6SM SCT025 OVC040
     FM270800 04008KT P6SM SCT250=



000
FTUS41 KOKX 261330 AAA
TAFJFK
TAF AMD
KJFK 261330Z 2614/2718 09007KT P6SM FEW010 BKN040 BKN090
      TEMPO 2614/2617 6SM -RA BKN025
     FM261700 19008KT 5SM SHRA BR SCT020 OVC035
      TEMPO 2617/2619 2SM TSRA OVC015CB
     FM262100 04013KT P6SM OVC025
     FM270100 02011KT P6SM SCT025 OVC040
     FM270800 02007KT P6SM SCT250
     FM271600 18010KT P6SM FEW250=



000
FTUS41 KOKX 261330 AAA
TAFBDR
TAF AMD
KBDR 261330Z 2614/2712 08006KT P6SM -RA FEW009 BKN040 BKN090
     FM261500 10008KT P6SM SCT025 BKN050
     FM261700 11010KT 5SM -SHRA BR OVC025
      TEMPO 2617/2620 3SM SHRA BR BKN015
     FM262200 05013KT P6SM SCT025 OVC035
     FM270200 03006KT P6SM SCT020 OVC035
     FM271000 26005KT P6SM SCT250=



000
FTUS41 KOKX 261330 AAA
TAFEWR
TAF AMD
KEWR 261330Z 2614/2718 08005KT P6SM BKN009
      TEMPO 2614/2615 BKN020 BKN090
     FM261500 06005KT P6SM FEW010 BKN050 BKN090
      TEMPO 2615/2617 6SM -RA BKN025
     FM261700 22015KT 5SM SHRA BR OVC035
      TEMPO 2617/2619 1 1/2SM TSRA OVC010CB
     FM262100 01016KT P6SM OVC030
     FM270100 03012KT P6SM SCT025 OVC050
     FM270800 02006KT P6SM SCT250
     FM271500 34007KT P6SM SCT250=



000
FTUS41 KOKX 261330 AAA
TAFISP
TAF AMD
KISP 261330Z 2614/2712 12007KT P6SM FEW006 BKN040 BKN100
     FM261700 VRB04KT 6SM -SHRA SCT020 BKN035
      TEMPO 2617/2620 3SM SHRA BR BKN015 OVC025
     FM262200 03013KT 5SM BR OVC020
     FM270200 36008KT P6SM SCT020 OVC035
     FM271000 01006KT P6SM SCT250=



000
FTUS41 KOKX 261330 AAA
TAFTEB
TAF AMD
KTEB 261330Z 2614/2712 VRB03KT 4SM BR BKN009
     FM261500 07008KT P6SM SCT015 BKN040 BKN090
      TEMPO 2615/2617 5SM -RA BKN020
     FM261700 23010KT 4SM SHRA BR OVC035
      TEMPO 2617/2619 1 1/2SM TSRA OVC010CB
     FM262100 04012KT P6SM OVC025
     FM270100 03006KT P6SM SCT025 OVC040
     FM270800 02004KT P6SM SCT250=



000
FTUS41 KOKX 261330 AAA
TAFSWF
TAF AMD
KSWF 261330Z 2614/2718 12006KT 5SM -RA BR BKN005 OVC040
     FM261500 29005KT 3SM -SHRA BR SCT010 OVC025
      TEMPO 2615/2619 BKN010 OVC025
     FM262000 36013KT 5SM BR BKN025 OVC040
     FM262300 03008KT P6SM BKN035
     FM271400 28006KT P6SM SCT250
      AMD NOT SKED=



000
FTUS41 KOKX 261330 AAA
TAFGON
TAF AMD
KGON 261330Z 2614/2712 09013KT P6SM OVC020
      TEMPO 2614/2617 6SM -SHRA BR BKN025
     FM261700 06014KT 5SM -RA BR BKN025 OVC035
      TEMPO 2617/2621 2SM RA BR BKN010
     FM262300 02010KT P6SM OVC020
     FM270600 36005KT P6SM SCT020 OVC035=



000
FTUS41 KOKX 261143 CCA
TAFLGA
TAF COR
KLGA 261143Z 2612/2712 05008KT P6SM BKN006 BKN090
     FM261300 09008KT P6SM FEW008 BKN050 BKN090
      TEMPO 2614/2617 6SM -RA BKN025
     FM261700 17005KT 5SM SHRA BR OVC035
      TEMPO 2617/2619 2SM TSRA OVC015CB
     FM262100 04016KT P6SM OVC025
     FM270100 03013KT P6SM SCT025 OVC040
     FM270800 04008KT P6SM SCT250=



000
FTUS41 KOKX 261120
TAFTEB
TAF
KTEB 261120Z 2612/2712 VRB03KT 4SM BR BKN009
     FM261300 07008KT P6SM SCT015 BKN040 BKN090
      TEMPO 2614/2617 5SM -RA BKN020
     FM261700 23010KT 4SM SHRA BR OVC035
      TEMPO 2617/2619 1 1/2SM TSRA OVC010CB
     FM262100 04012KT P6SM OVC025
     FM270100 03006KT P6SM SCT025 OVC040
     FM270800 02004KT P6SM SCT250=



000
FTUS41 KOKX 261120
TAFJFK
TAF
KJFK 261120Z 2612/2718 09007KT P6SM FEW010 BKN040 BKN090
      TEMPO 2614/2617 6SM -RA BKN025
     FM261700 19008KT 5SM SHRA BR SCT020 OVC035
      TEMPO 2617/2619 2SM TSRA OVC015CB
     FM262100 04013KT P6SM OVC025
     FM270100 02011KT P6SM SCT025 OVC040
     FM270800 02007KT P6SM SCT250
     FM271600 18010KT P6SM FEW250=



000
FTUS41 KOKX 261120
TAFBDR
TAF
KBDR 261120Z 2612/2712 08006KT P6SM -RA FEW009 BKN040 BKN090
     FM261300 10008KT P6SM SCT025 BKN050
     FM261700 11010KT 5SM -SHRA BR OVC025
      TEMPO 2617/2620 3SM SHRA BR BKN015
     FM262200 05013KT P6SM SCT025 OVC035
     FM270200 03006KT P6SM SCT020 OVC035
     FM271000 26005KT P6SM SCT250=



000
FTUS41 KOKX 261120
TAFSWF
TAF
KSWF 261120Z 2612/2718 12006KT 5SM -RA BR BKN015 OVC050
     FM261300 VRB05KT P6SM SCT030 OVC050
     FM261500 29005KT 3SM -SHRA BR SCT010 OVC025
      TEMPO 2615/2619 BKN010 OVC025
     FM262000 36013KT 5SM BR BKN025 OVC040
     FM262300 03008KT P6SM BKN035
     FM271400 28006KT P6SM SCT250
      AMD NOT SKED=



000
FTUS41 KOKX 261120
TAFLGA
TAF
KLGA 261120Z 2612/2712 09008KT P6SM FEW008 BKN050 BKN090
      TEMPO 2614/2617 6SM -RA BKN025
     FM261700 17005KT 5SM SHRA BR OVC035
      TEMPO 2617/2619 2SM TSRA OVC015CB
     FM262100 04016KT P6SM OVC025
     FM270100 03013KT P6SM SCT025 OVC040
     FM270800 04008KT P6SM SCT250=



000
FTUS41 KOKX 261120
TAFBDR
TAF
KBDR 261120Z 2612/2712 08006KT P6SM -RA FEW009 BKN040 BKN090
     FM261300 10008KT P6SM SCT025 BKN050
     FM261700 11010KT 5SM -SHRA BR OVC025
      TEMPO 2617/2620 3SM SHRA BR BKN015
     FM262200 05013KT P6SM SCT025 OVC035
     FM270200 03006KT P6SM SCT020 OVC035
     FM271000 26005KT P6SM SCT250=



000
FTUS41 KOKX 261120
TAFGON
TAF
KGON 261120Z 2612/2712 09013KT P6SM SCT025 OVC080
      TEMPO 2612/2615 6SM -SHRA BR BKN025
     FM261700 06014KT 5SM -RA BR BKN025 OVC035
      TEMPO 2617/2621 2SM RA BR BKN010
     FM262300 02010KT P6SM OVC020
     FM270600 36005KT P6SM SCT020 OVC035=



000
FTUS41 KOKX 261120
TAFLGA
TAF
KLGA 261120Z 2612/2712 09008KT P6SM FEW008 BKN050 BKN090
      TEMPO 2614/2617 6SM -RA BKN025
     FM261700 17005KT 5SM SHRA BR OVC035
      TEMPO 2617/2619 2SM TSRA OVC015CB
     FM262100 04016KT P6SM OVC025
     FM270100 03013KT P6SM SCT025 OVC040
     FM270800 04008KT P6SM SCT250=



000
FTUS41 KOKX 261120
TAFGON
TAF
KGON 261120Z 2612/2712 09013KT P6SM SCT025 OVC080
      TEMPO 2612/2615 6SM -SHRA BR BKN025
     FM261700 06014KT 5SM -RA BR BKN025 OVC035
      TEMPO 2617/2621 2SM RA BR BKN010
     FM262300 02010KT P6SM OVC020
     FM270600 36005KT P6SM SCT020 OVC035=



000
FTUS41 KOKX 261120
TAFEWR
TAF
KEWR 261120Z 2612/2718 06005KT P6SM FEW010 BKN050 BKN090
      TEMPO 2614/2617 6SM -RA BKN025
     FM261700 22015KT 5SM SHRA BR OVC035
      TEMPO 2617/2619 1 1/2SM TSRA OVC010CB
     FM262100 01016KT P6SM OVC030
     FM270100 03012KT P6SM SCT025 OVC050
     FM270800 02006KT P6SM SCT250
     FM271500 34007KT P6SM SCT250=



000
FTUS41 KOKX 261120
TAFEWR
TAF
KEWR 261120Z 2612/2718 06005KT P6SM FEW010 BKN050 BKN090
      TEMPO 2614/2617 6SM -RA BKN025
     FM261700 22015KT 5SM SHRA BR OVC035
      TEMPO 2617/2619 1 1/2SM TSRA OVC010CB
     FM262100 01016KT P6SM OVC030
     FM270100 03012KT P6SM SCT025 OVC050
     FM270800 02006KT P6SM SCT250
     FM271500 34007KT P6SM SCT250=



000
FTUS41 KOKX 261120
TAFISP
TAF
KISP 261120Z 2612/2712 12007KT P6SM FEW006 BKN040 BKN100
     FM261700 VRB04KT 6SM -SHRA SCT020 BKN035
      TEMPO 2617/2620 3SM SHRA BR BKN015 OVC025
     FM262200 03013KT 5SM BR OVC020
     FM270200 36008KT P6SM SCT020 OVC035
     FM271000 01006KT P6SM SCT250=



000
FTUS41 KOKX 261120
TAFISP
TAF
KISP 261120Z 2612/2712 12007KT P6SM FEW006 BKN040 BKN100
     FM261700 VRB04KT 6SM -SHRA SCT020 BKN035
      TEMPO 2617/2620 3SM SHRA BR BKN015 OVC025
     FM262200 03013KT 5SM BR OVC020
     FM270200 36008KT P6SM SCT020 OVC035
     FM271000 01006KT P6SM SCT250=



000
FTUS41 KOKX 261120
TAFTEB
TAF
KTEB 261120Z 2612/2712 VRB03KT 4SM BR BKN009
     FM261300 07008KT P6SM SCT015 BKN040 BKN090
      TEMPO 2614/2617 5SM -RA BKN020
     FM261700 23010KT 4SM SHRA BR OVC035
      TEMPO 2617/2619 1 1/2SM TSRA OVC010CB
     FM262100 04012KT P6SM OVC025
     FM270100 03006KT P6SM SCT025 OVC040
     FM270800 02004KT P6SM SCT250=



000
FTUS41 KOKX 261120
TAFJFK
TAF
KJFK 261120Z 2612/2718 09007KT P6SM FEW010 BKN040 BKN090
      TEMPO 2614/2617 6SM -RA BKN025
     FM261700 19008KT 5SM SHRA BR SCT020 OVC035
      TEMPO 2617/2619 2SM TSRA OVC015CB
     FM262100 04013KT P6SM OVC025
     FM270100 02011KT P6SM SCT025 OVC040
     FM270800 02007KT P6SM SCT250
     FM271600 18010KT P6SM FEW250=



000
FTUS41 KOKX 261120
TAFSWF
TAF
KSWF 261120Z 2612/2718 12006KT 5SM -RA BR BKN015 OVC050
     FM261300 VRB05KT P6SM SCT030 OVC050
     FM261500 29005KT 3SM -SHRA BR SCT010 OVC025
      TEMPO 2615/2619 BKN010 OVC025
     FM262000 36013KT 5SM BR BKN025 OVC040
     FM262300 03008KT P6SM BKN035
     FM271400 28006KT P6SM SCT250
      AMD NOT SKED=



000
FTUS41 KOKX 260834 AAB
TAFJFK
TAF AMD
KJFK 260834Z 2609/2712 11006KT 6SM -RA BR BKN040 OVC080
     FM261500 19008KT 5SM RA BR SCT020 OVC035
      TEMPO 2617/2619 2SM TSRA OVC015CB
     FM262200 04013KT 6SM -RA OVC015
     FM270000 02011KT P6SM SCT015 OVC040
     FM270800 02007KT P6SM BKN040=



000
FTUS41 KOKX 260834 AAA
TAFGON
TAF AMD
KGON 260834Z 2609/2706 09010KT 5SM -RA BR SCT015 OVC040
      TEMPO 2609/2612 3SM TSRA BKN015CB
     FM261700 06014KT 5SM -RA BR BKN015 OVC025
      TEMPO 2617/2621 2SM RA BR BKN009
     FM270000 02010KT 6SM BR OVC020
     FM270400 36005KT P6SM SCT020 OVC035=



000
FTUS41 KOKX 260834 AAB
TAFLGA
TAF AMD
KLGA 260834Z 2609/2706 07007KT 6SM -RA BR OVC040
     FM261500 17005KT 5SM RA BR OVC035
      TEMPO 2617/2619 2SM TSRA OVC015CB
     FM262200 04016KT 6SM -RA OVC015
     FM270000 03013KT P6SM SCT015 OVC040=



000
FTUS41 KOKX 260834 AAB
TAFBDR
TAF AMD
KBDR 260834Z 2609/2706 06006KT 6SM -RA BR SCT025 OVC050
      TEMPO 2609/2610 5SM TSRA SCT025CB OVC050
     FM261500 11010KT 5SM RA BR OVC025
      TEMPO 2615/2619 2SM RA BR BKN015
     FM262200 05015KT 3SM -RA BR OVC020
     FM270200 04008KT P6SM SCT020 OVC035=



000
FTUS41 KOKX 260834 AAA
TAFSWF
TAF AMD
KSWF 260834Z 2609/2712 VRB04KT 6SM -RA BR SCT010 OVC050
      TEMPO 2609/2612 4SM -RA BR BKN025
     FM261600 29005KT 3SM -RA BR SCT010 OVC025
      TEMPO 2616/2620 2SM RA BR BKN010 OVC020
     FM262100 01013KT 5SM BR BKN020 OVC040
     FM270000 03005KT P6SM BKN020
      AMD NOT SKED=



000
FTUS41 KOKX 260834 AAB
TAFISP
TAF AMD
KISP 260834Z 2609/2706 12007KT 6SM -RA BR SCT015 OVC040
      TEMPO 2609/2610 3SM TSRA SCT035CB BKN060
     FM261600 VRB04KT 4SM RA BR OVC025
      TEMPO 2616/2620 2SM RA BR BKN010 OVC015
     FM262200 03013KT 6SM -RA BR OVC020
     FM270200 36008KT P6SM SCT020 OVC040=



000
FTUS41 KOKX 260834 AAB
TAFTEB
TAF AMD
KTEB 260834Z 2609/2706 07008KT 6SM -RA BR SCT030 OVC040
     FM261500 23010KT 4SM RA BR OVC035
      TEMPO 2617/2619 1 1/2SM TSRA OVC010CB
     FM262200 04012KT P6SM OVC025
     FM270000 03006KT P6SM SCT025 OVC040=



000
FTUS41 KOKX 260834 AAB
TAFEWR
TAF AMD
KEWR 260834Z 2609/2712 06005KT 6SM -RA OVC050
     FM261500 22015KT 5SM RA BR OVC035
      TEMPO 2617/2619 1 1/2SM TSRA OVC010CB
     FM262200 01016KT P6SM OVC025
     FM270000 03012KT P6SM SCT025 OVC050
     FM270800 02006KT P6SM BKN050=



000
FTUS41 KOKX 260812 AAA
TAFBDR
TAF AMD
KBDR 260812Z 2608/2706 06006KT 6SM -RA BR SCT025 OVC040
      TEMPO 2608/2610 5SM TSRA SCT025CB OVC050
     FM261500 11010KT 3SM RA BR OVC015
     FM262200 05015KT 3SM -RA BR OVC020
     FM270200 04008KT P6SM SCT020 OVC035=



000
FTUS41 KOKX 260810 AAA
TAFISP
TAF AMD
KISP 260810Z 2608/2706 12007KT 6SM -RA BR SCT015 OVC040
      TEMPO 2608/2610 4SM TSRA SCT035CB BKN060
     FM261600 VRB04KT 2SM RA BR OVC009
     FM262200 03013KT 6SM -RA BR OVC020
     FM270200 36008KT P6SM SCT020 OVC040=



000
FTUS41 KOKX 260716 AAA
TAFJFK
TAF AMD
KJFK 260716Z 2607/2712 10005KT P6SM BKN100
     FM260800 11006KT 5SM -RA BR BKN035 OVC080
      TEMPO 2608/2609 2SM TSRA BKN025CB
     FM261500 19008KT 3SM RA BR OVC020
      TEMPO 2617/2619 2SM TSRA OVC015CB
     FM262200 04013KT 6SM -RA OVC015
     FM270000 02011KT P6SM SCT015 OVC040
     FM270800 02007KT P6SM BKN040=



000
FTUS41 KOKX 260716 AAA
TAFLGA
TAF AMD
KLGA 260716Z 2607/2706 07007KT P6SM BKN120
     FM260800 07007KT 5SM -RA BR OVC040
      TEMPO 2608/2609 2SM TSRA BKN025CB
     FM261500 17005KT 3SM RA BR OVC025
      TEMPO 2617/2619 2SM TSRA OVC015CB
     FM262200 04016KT 6SM -RA OVC015
     FM270000 03013KT P6SM SCT015 OVC040=



000
FTUS41 KOKX 260646 AAA
TAFTEB
TAF AMD
KTEB 260646Z 2607/2706 VRB04KT P6SM BKN120
     FM260800 VRB03KT 6SM -RA BR SCT030 OVC040
      TEMPO 2608/2609 4SM TSRA OVC030CB
     FM261500 23010KT 3SM RA BR OVC025
      TEMPO 2617/2619 1 1/2SM TSRA OVC010CB
     FM262200 04012KT P6SM OVC025
     FM270000 03006KT P6SM SCT025 OVC040=



000
FTUS41 KOKX 260645 AAA
TAFEWR
TAF AMD
KEWR 260645Z 2607/2712 VRB03KT P6SM BKN110
     FM260800 VRB04KT 6SM -RA OVC050
      TEMPO 2608/2609 4SM TSRA BKN030CB
     FM261500 22015KT 3SM RA BR OVC025
      TEMPO 2617/2619 1 1/2SM TSRA OVC010CB
     FM262200 01016KT P6SM OVC025
     FM270000 03012KT P6SM SCT025 OVC050
     FM270800 02006KT P6SM BKN050=



000
FTUS41 KOKX 260537
TAFLGA
TAF
KLGA 260537Z 2606/2706 07007KT P6SM BKN120
     FM260800 07007KT 5SM -RA BR OVC040
     FM261500 17005KT 3SM RA BR OVC025
      TEMPO 2617/2619 2SM TSRA OVC015CB
     FM262200 04016KT 6SM -RA OVC015
     FM270000 03013KT P6SM SCT015 OVC040=



000
FTUS41 KOKX 260537
TAFBDR
TAF
KBDR 260537Z 2606/2706 07006KT P6SM SCT150 BKN250
     FM260900 06006KT 4SM -RA BR SCT015 OVC040
     FM261500 11010KT 3SM RA BR OVC015
     FM262200 05015KT 3SM -RA BR OVC020
     FM270200 04008KT P6SM SCT020 OVC035=



000
FTUS41 KOKX 260537
TAFTEB
TAF
KTEB 260537Z 2606/2706 VRB04KT P6SM BKN120
     FM260800 VRB03KT 6SM -RA BR SCT030 OVC040
     FM261500 23010KT 3SM RA BR OVC025
      TEMPO 2617/2619 1 1/2SM TSRA OVC010CB
     FM262200 04012KT P6SM OVC025
     FM270000 03006KT P6SM SCT025 OVC040=



000
FTUS41 KOKX 260537
TAFJFK
TAF
KJFK 260537Z 2606/2712 10005KT P6SM BKN100
     FM260800 11006KT 5SM -RA BR BKN035 OVC080
     FM261500 19008KT 3SM RA BR OVC020
      TEMPO 2617/2619 2SM TSRA OVC015CB
     FM262200 04013KT 6SM -RA OVC015
     FM270000 02011KT P6SM SCT015 OVC040
     FM270800 02007KT P6SM BKN040=



000
FTUS41 KOKX 260537
TAFGON
TAF
KGON 260537Z 2606/2706 12004KT P6SM SCT150 BKN250
     FM260900 09010KT 3SM -RA BR BKN015 OVC025
     FM261700 06014KT 2SM RA BR OVC010
     FM270000 02010KT 6SM BR OVC020
     FM270400 36005KT P6SM SCT020 OVC035=



000
FTUS41 KOKX 260537
TAFEWR
TAF
KEWR 260537Z 2606/2712 VRB03KT P6SM BKN110
     FM260800 VRB04KT 6SM -RA OVC050
     FM261500 22015KT 3SM RA BR OVC025
      TEMPO 2617/2619 1 1/2SM TSRA OVC010CB
     FM262200 01016KT P6SM OVC025
     FM270000 03012KT P6SM SCT025 OVC050
     FM270800 02006KT P6SM BKN050=



000
FTUS41 KOKX 260537
TAFSWF
TAF
KSWF 260537Z 2606/2712 07009KT 6SM -RA SCT020 OVC080
     FM260900 VRB04KT 3SM -RA BR SCT010 OVC020
     FM261600 29005KT 2SM -RA BR OVC015
     FM262100 01013KT 5SM BR BKN020 OVC040
     FM270000 03005KT P6SM BKN020
      AMD NOT SKED=



000
FTUS41 KOKX 260537
TAFISP
TAF
KISP 260537Z 2606/2706 12006KT P6SM SCT150 BKN250
     FM260900 14007KT 3SM -RA BR SCT015 OVC025
     FM261600 VRB04KT 2SM RA BR OVC009
     FM262200 03013KT 6SM -RA BR OVC020
     FM270200 36008KT P6SM SCT020 OVC040=



000
FTUS41 KOKX 260537
TAFLGA
TAF
KLGA 260537Z 2606/2706 07007KT P6SM BKN120
     FM260800 07007KT 5SM -RA BR OVC040
     FM261500 17005KT 3SM RA BR OVC025
      TEMPO 2617/2619 2SM TSRA OVC015CB
     FM262200 04016KT 6SM -RA OVC015
     FM270000 03013KT P6SM SCT015 OVC040=



000
FTUS41 KOKX 260537
TAFSWF
TAF
KSWF 260537Z 2606/2712 07009KT 6SM -RA SCT020 OVC080
     FM260900 VRB04KT 3SM -RA BR SCT010 OVC020
     FM261600 29005KT 2SM -RA BR OVC015
     FM262100 01013KT 5SM BR BKN020 OVC040
     FM270000 03005KT P6SM BKN020
      AMD NOT SKED=



000
FTUS41 KOKX 260537
TAFEWR
TAF
KEWR 260537Z 2606/2712 VRB03KT P6SM BKN110
     FM260800 VRB04KT 6SM -RA OVC050
     FM261500 22015KT 3SM RA BR OVC025
      TEMPO 2617/2619 1 1/2SM TSRA OVC010CB
     FM262200 01016KT P6SM OVC025
     FM270000 03012KT P6SM SCT025 OVC050
     FM270800 02006KT P6SM BKN050=



000
FTUS41 KOKX 260537
TAFGON
TAF
KGON 260537Z 2606/2706 12004KT P6SM SCT150 BKN250
     FM260900 09010KT 3SM -RA BR BKN015 OVC025
     FM261700 06014KT 2SM RA BR OVC010
     FM270000 02010KT 6SM BR OVC020
     FM270400 36005KT P6SM SCT020 OVC035=



000
FTUS41 KOKX 260537
TAFJFK
TAF
KJFK 260537Z 2606/2712 10005KT P6SM BKN100
     FM260800 11006KT 5SM -RA BR BKN035 OVC080
     FM261500 19008KT 3SM RA BR OVC020
      TEMPO 2617/2619 2SM TSRA OVC015CB
     FM262200 04013KT 6SM -RA OVC015
     FM270000 02011KT P6SM SCT015 OVC040
     FM270800 02007KT P6SM BKN040=



000
FTUS41 KOKX 260537
TAFISP
TAF
KISP 260537Z 2606/2706 12006KT P6SM SCT150 BKN250
     FM260900 14007KT 3SM -RA BR SCT015 OVC025
     FM261600 VRB04KT 2SM RA BR OVC009
     FM262200 03013KT 6SM -RA BR OVC020
     FM270200 36008KT P6SM SCT020 OVC040=



000
FTUS41 KOKX 260537
TAFBDR
TAF
KBDR 260537Z 2606/2706 07006KT P6SM SCT150 BKN250
     FM260900 06006KT 4SM -RA BR SCT015 OVC040
     FM261500 11010KT 3SM RA BR OVC015
     FM262200 05015KT 3SM -RA BR OVC020
     FM270200 04008KT P6SM SCT020 OVC035=



000
FTUS41 KOKX 260537
TAFTEB
TAF
KTEB 260537Z 2606/2706 VRB04KT P6SM BKN120
     FM260800 VRB03KT 6SM -RA BR SCT030 OVC040
     FM261500 23010KT 3SM RA BR OVC025
      TEMPO 2617/2619 1 1/2SM TSRA OVC010CB
     FM262200 04012KT P6SM OVC025
     FM270000 03006KT P6SM SCT025 OVC040=



000
FTUS41 KOKX 260230 AAA
TAFBDR
TAF AMD
KBDR 260230Z 2603/2624 VRB04KT P6SM FEW060 BKN150
     FM260800 05006KT 4SM -RA BR BKN015 OVC040
     FM261500 07010KT 2SM RA BR OVC009
     FM261800 04012KT 2SM -RA BR OVC009=



000
FTUS41 KOKX 260230 AAA
TAFGON
TAF AMD
KGON 260230Z 2603/2624 VRB04KT P6SM FEW060 BKN150
     FM260500 VRB05KT P6SM SCT025 OVC040
     FM260900 07008KT 3SM -RA BR BKN015 OVC025
     FM261400 05011G19KT 2SM RA BR OVC015=



000
FTUS41 KOKX 260230 AAA
TAFLGA
TAF AMD
KLGA 260230Z 2603/2624 14005KT P6SM FEW060 BKN150
     FM260700 09007KT 5SM -RA BR BKN025 OVC040
     FM261000 05007KT 2SM RA BR OVC015
     FM261500 08010KT 3SM RA BR OVC015
     FM262100 05014KT 6SM -RA OVC015=



000
FTUS41 KOKX 260230 AAA
TAFTEB
TAF AMD
KTEB 260230Z 2603/2624 VRB04KT P6SM FEW060 BKN150
     FM260700 VRB03KT 6SM -RA BR BKN025 OVC050
     FM261000 VRB03KT 2SM RA BR OVC015
     FM261500 06006KT 3SM RA BR OVC025
     FM262100 03010KT P6SM OVC025=



000
FTUS41 KOKX 260230 AAA
TAFEWR
TAF AMD
KEWR 260230Z 2603/2706 09004KT P6SM FEW060 BKN150
     FM260700 VRB04KT 6SM -RA BKN025 OVC050
     FM261000 VRB04KT 3SM RA BR OVC015
     FM261500 15006KT 4SM RA BR OVC015
     FM262100 03012KT P6SM OVC025
     FM270000 03010KT P6SM BKN015 OVC050=



000
FTUS41 KOKX 260230 AAA
TAFISP
TAF AMD
KISP 260230Z 2603/2624 16005KT P6SM FEW060 BKN150
     FM260800 11007KT 3SM -RA BR BKN015 OVC025
     FM261200 05007KT 2SM RA BR OVC009
     FM261900 04013KT 2SM RA BR OVC009=



000
FTUS41 KOKX 260230 AAA
TAFJFK
TAF AMD
KJFK 260230Z 2603/2706 11005KT P6SM FEW060 BKN150
     FM260700 09006KT 5SM -RA BR BKN025 OVC040
     FM261000 07007KT 2SM RA BR OVC015
     FM261500 13007KT 3SM RA BR OVC015
     FM262100 03013KT 6SM -RA OVC015
     FM270000 03013KT P6SM BKN015 OVC040=



000
FTUS41 KOKX 260230 AAA
TAFGON
TAF AMD
KGON 260230Z 2603/2624 VRB04KT P6SM FEW060 BKN150
     FM260500 VRB05KT P6SM SCT025 OVC040
     FM260900 07008KT 3SM -RA BR BKN015 OVC025
     FM261400 05011G19KT 2SM RA BR OVC015=



000
FTUS41 KOKX 260230 AAA
TAFBDR
TAF AMD
KBDR 260230Z 2603/2624 VRB04KT P6SM FEW060 BKN150
     FM260800 05006KT 4SM -RA BR BKN015 OVC040
     FM261500 07010KT 2SM RA BR OVC009
     FM261800 04012KT 2SM -RA BR OVC009=



000
FTUS41 KOKX 260230 AAA
TAFLGA
TAF AMD
KLGA 260230Z 2603/2624 14005KT P6SM FEW060 BKN150
     FM260700 09007KT 5SM -RA BR BKN025 OVC040
     FM261000 05007KT 2SM RA BR OVC015
     FM261500 08010KT 3SM RA BR OVC015
     FM262100 05014KT 6SM -RA OVC015=



000
FTUS41 KOKX 260230 AAA
TAFTEB
TAF AMD
KTEB 260230Z 2603/2624 VRB04KT P6SM FEW060 BKN150
     FM260700 VRB03KT 6SM -RA BR BKN025 OVC050
     FM261000 VRB03KT 2SM RA BR OVC015
     FM261500 06006KT 3SM RA BR OVC025
     FM262100 03010KT P6SM OVC025=



000
FTUS41 KOKX 260230 AAA
TAFISP
TAF AMD
KISP 260230Z 2603/2624 16005KT P6SM FEW060 BKN150
     FM260800 11007KT 3SM -RA BR BKN015 OVC025
     FM261200 05007KT 2SM RA BR OVC009
     FM261900 04013KT 2SM RA BR OVC009=



000
FTUS41 KOKX 260230 AAA
TAFEWR
TAF AMD
KEWR 260230Z 2603/2706 09004KT P6SM FEW060 BKN150
     FM260700 VRB04KT 6SM -RA BKN025 OVC050
     FM261000 VRB04KT 3SM RA BR OVC015
     FM261500 15006KT 4SM RA BR OVC015
     FM262100 03012KT P6SM OVC025
     FM270000 03010KT P6SM BKN015 OVC050=



000
FTUS41 KOKX 260230 AAA
TAFSWF
TAF AMD
KSWF 260230Z 2603/2706 VRB04KT P6SM FEW030 OVC060
     FM260500 VRB05KT 6SM -RA SCT020 OVC035
     FM260900 09006KT 2SM RA BR BKN008 OVC015
     FM261300 08007KT 3SM -RA BR OVC010
     FM261700 06006KT 3SM -RA BR OVC010
     FM262100 04006KT P6SM BKN010 OVC040
      AMD NOT SKED=



000
FTUS41 KOKX 260230 AAA
TAFSWF
TAF AMD
KSWF 260230Z 2603/2706 VRB04KT P6SM FEW030 OVC060
     FM260500 VRB05KT 6SM -RA SCT020 OVC035
     FM260900 09006KT 2SM RA BR BKN008 OVC015
     FM261300 08007KT 3SM -RA BR OVC010
     FM261700 06006KT 3SM -RA BR OVC010
     FM262100 04006KT P6SM BKN010 OVC040
      AMD NOT SKED=



000
FTUS41 KOKX 260230 AAA
TAFJFK
TAF AMD
KJFK 260230Z 2603/2706 11005KT P6SM FEW060 BKN150
     FM260700 09006KT 5SM -RA BR BKN025 OVC040
     FM261000 07007KT 2SM RA BR OVC015
     FM261500 13007KT 3SM RA BR OVC015
     FM262100 03013KT 6SM -RA OVC015
     FM270000 03013KT P6SM BKN015 OVC040=



    US Dept of Commerce
    National Oceanic and Atmospheric Administration
    National Weather Service
    1325 East West Highway
    Silver Spring, MD 20910
    Page Author: NWS Internet Services Team
Disclaimer
Information Quality
Credits
Glossary
Privacy Policy
Freedom of Information Act (FOIA)
About Us
Career Opportunities